PAL113 KLAX-RPLL
Flight info
| Callsign | PAL113 |
|---|---|
| Flight time | N/A |
| Altitude | 30000 |
| Route | SUMMR2 MCKEY DCT LIBBO DCT BRINY DCT BEBOP DCT 38N130W/N0487F320 38N140W 36N150W 33N160W/N0489F340 30N170W 27N180E 24N170E 21N160E/N0484F360 19N150E 17N140E/N0480F380 16N130E DCT MUPOB Z153 POLIO POLIO7R |
| Aircraft | B77W/H-SDE1E2E3FGHIJ2J3J4J5M1RWXY/LB1D1 |
Departure
| Time | 2026-04-26 02:00 |
|---|---|
| Airport | Los Angeles International Airport (KLAX) |
Arrival
| Time | N/A |
|---|---|
| Airport | Ninoy Aquino International Airport (RPLL) |
| Time | Latitude | Longitude | Altitude | Speed | Heading |
|---|---|---|---|---|---|
| 2026-04-26 01:15 | 33.94505 | -118.41468 | 99 ft | 0 kts | 263° |
| 2026-04-26 01:32 | 33.94506 | -118.41458 | 99 ft | 0 kts | 263° |
| 2026-04-26 01:32 | 33.94505 | -118.41468 | 99 ft | 0 kts | 263° |
| 2026-04-26 01:48 | 33.94507 | -118.41447 | 101 ft | 4 kts | 263° |
| 2026-04-26 01:48 | 33.94510 | -118.41414 | 98 ft | 4 kts | 263° |
| 2026-04-26 01:48 | 33.94513 | -118.41389 | 97 ft | 4 kts | 273° |
| 2026-04-26 01:49 | 33.94509 | -118.41367 | 97 ft | 4 kts | 311° |
| 2026-04-26 01:49 | 33.94494 | -118.41354 | 99 ft | 4 kts | 351° |
| 2026-04-26 01:49 | 33.94469 | -118.41350 | 98 ft | 4 kts | 353° |
| 2026-04-26 01:49 | 33.94456 | -118.41348 | 99 ft | 0 kts | 353° |
| 2026-04-26 01:53 | 33.94463 | -118.41350 | 101 ft | 4 kts | 353° |
| 2026-04-26 01:53 | 33.94513 | -118.41357 | 101 ft | 10 kts | 353° |
| 2026-04-26 01:53 | 33.94579 | -118.41367 | 100 ft | 10 kts | 353° |
| 2026-04-26 01:54 | 33.94646 | -118.41377 | 101 ft | 10 kts | 353° |
| 2026-04-26 01:54 | 33.94712 | -118.41387 | 102 ft | 10 kts | 353° |
| 2026-04-26 01:54 | 33.94773 | -118.41366 | 105 ft | 10 kts | 49° |
| 2026-04-26 01:54 | 33.94792 | -118.41289 | 104 ft | 10 kts | 82° |
| 2026-04-26 01:55 | 33.94800 | -118.41208 | 107 ft | 10 kts | 83° |
| 2026-04-26 01:55 | 33.94809 | -118.41128 | 105 ft | 10 kts | 82° |
| 2026-04-26 01:55 | 33.94817 | -118.41047 | 108 ft | 10 kts | 82° |
| 2026-04-26 01:55 | 33.94825 | -118.40966 | 107 ft | 10 kts | 83° |
| 2026-04-26 01:56 | 33.94833 | -118.40886 | 107 ft | 10 kts | 83° |
| 2026-04-26 01:56 | 33.94842 | -118.40805 | 105 ft | 10 kts | 83° |
| 2026-04-26 01:56 | 33.94851 | -118.40718 | 105 ft | 14 kts | 83° |
| 2026-04-26 01:56 | 33.94863 | -118.40598 | 107 ft | 14 kts | 83° |
| 2026-04-26 01:57 | 33.94876 | -118.40479 | 107 ft | 14 kts | 82° |
| 2026-04-26 01:57 | 33.94888 | -118.40359 | 106 ft | 14 kts | 83° |
| 2026-04-26 01:57 | 33.94900 | -118.40238 | 107 ft | 14 kts | 83° |
| 2026-04-26 01:57 | 33.94912 | -118.40117 | 104 ft | 14 kts | 83° |
| 2026-04-26 01:58 | 33.94924 | -118.39997 | 104 ft | 14 kts | 82° |
| 2026-04-26 01:58 | 33.94989 | -118.39918 | 109 ft | 14 kts | 4° |
| 2026-04-26 01:58 | 33.95035 | -118.39990 | 111 ft | 9 kts | 271° |
| 2026-04-26 01:58 | 33.95034 | -118.40017 | 112 ft | 0 kts | 265° |
| 2026-04-26 01:59 | 33.95029 | -118.40079 | 114 ft | 27 kts | 263° |
| 2026-04-26 01:59 | 33.94971 | -118.40648 | 111 ft | 109 kts | 263° |
| 2026-04-26 01:59 | 33.94844 | -118.41871 | 111 ft | 184 kts | 262° |
| 2026-04-26 01:59 | 33.94668 | -118.43502 | 691 ft | 202 kts | 262° |
| 2026-04-26 02:00 | 33.94502 | -118.45175 | 1779 ft | 196 kts | 262° |
| 2026-04-26 02:00 | 33.94351 | -118.46766 | 2501 ft | 187 kts | 265° |
| 2026-04-26 02:00 | 33.94289 | -118.48306 | 2982 ft | 185 kts | 268° |
| 2026-04-26 02:00 | 33.94244 | -118.49945 | 3026 ft | 208 kts | 268° |
| 2026-04-26 02:01 | 33.94174 | -118.51768 | 3185 ft | 227 kts | 265° |
| 2026-04-26 02:01 | 33.94022 | -118.53713 | 3475 ft | 242 kts | 264° |
| 2026-04-26 02:01 | 33.93850 | -118.55793 | 3865 ft | 253 kts | 264° |
| 2026-04-26 02:01 | 33.93679 | -118.57919 | 4491 ft | 257 kts | 264° |
| 2026-04-26 02:02 | 33.93507 | -118.60083 | 5103 ft | 262 kts | 264° |
| 2026-04-26 02:02 | 33.93334 | -118.62270 | 5788 ft | 263 kts | 264° |
| 2026-04-26 02:02 | 33.93162 | -118.64446 | 6457 ft | 265 kts | 265° |
| 2026-04-26 02:02 | 33.92989 | -118.66662 | 7086 ft | 267 kts | 265° |
| 2026-04-26 02:03 | 33.92817 | -118.68889 | 7756 ft | 267 kts | 264° |
| 2026-04-26 02:03 | 33.92643 | -118.71135 | 8368 ft | 270 kts | 264° |
| 2026-04-26 02:03 | 33.92468 | -118.73387 | 9045 ft | 270 kts | 264° |
| 2026-04-26 02:03 | 33.92292 | -118.75652 | 9689 ft | 272 kts | 263° |
| 2026-04-26 02:04 | 33.92113 | -118.77938 | 10261 ft | 275 kts | 263° |
| 2026-04-26 02:04 | 33.91927 | -118.80306 | 10451 ft | 293 kts | 263° |
| 2026-04-26 02:04 | 33.91730 | -118.82793 | 10626 ft | 311 kts | 264° |
| 2026-04-26 02:04 | 33.91650 | -118.85466 | 10774 ft | 331 kts | 270° |
| 2026-04-26 02:05 | 33.91763 | -118.88302 | 11124 ft | 344 kts | 272° |
| 2026-04-26 02:05 | 33.91903 | -118.91208 | 11673 ft | 350 kts | 271° |
| 2026-04-26 02:05 | 33.92015 | -118.94151 | 12349 ft | 353 kts | 270° |
| 2026-04-26 02:05 | 33.92108 | -118.97121 | 13055 ft | 356 kts | 270° |
| 2026-04-26 02:06 | 33.92340 | -119.00088 | 13622 ft | 360 kts | 282° |
| 2026-04-26 02:06 | 33.93318 | -119.02905 | 14119 ft | 372 kts | 298° |
| 2026-04-26 02:06 | 33.94936 | -119.05365 | 14731 ft | 377 kts | 308° |
| 2026-04-26 02:06 | 33.96731 | -119.07687 | 15302 ft | 382 kts | 309° |
| 2026-04-26 02:07 | 33.98575 | -119.10016 | 15894 ft | 386 kts | 309° |
| 2026-04-26 02:07 | 34.00444 | -119.12366 | 16486 ft | 389 kts | 309° |
| 2026-04-26 02:07 | 34.02321 | -119.14735 | 17080 ft | 392 kts | 309° |
| 2026-04-26 02:07 | 34.04208 | -119.17133 | 17674 ft | 395 kts | 309° |
| 2026-04-26 02:08 | 34.06103 | -119.19557 | 18262 ft | 399 kts | 308° |
| 2026-04-26 02:08 | 34.08008 | -119.22004 | 18778 ft | 401 kts | 308° |
| 2026-04-26 02:08 | 34.09927 | -119.24479 | 19292 ft | 404 kts | 308° |
| 2026-04-26 02:08 | 34.11827 | -119.26934 | 19794 ft | 407 kts | 308° |
| 2026-04-26 02:09 | 34.13769 | -119.29449 | 20309 ft | 410 kts | 308° |
| 2026-04-26 02:09 | 34.15717 | -119.31973 | 20818 ft | 412 kts | 308° |
| 2026-04-26 02:09 | 34.17675 | -119.34512 | 21309 ft | 415 kts | 308° |
| 2026-04-26 02:09 | 34.19648 | -119.37074 | 21805 ft | 418 kts | 308° |
| 2026-04-26 02:10 | 34.21633 | -119.39651 | 22304 ft | 421 kts | 308° |
| 2026-04-26 02:10 | 34.23635 | -119.42254 | 22764 ft | 424 kts | 309° |
| 2026-04-26 02:10 | 34.25647 | -119.44872 | 23200 ft | 427 kts | 309° |
| 2026-04-26 02:10 | 34.27670 | -119.47506 | 23628 ft | 430 kts | 309° |
| 2026-04-26 02:11 | 34.29717 | -119.50172 | 23992 ft | 432 kts | 309° |
| 2026-04-26 02:11 | 34.31772 | -119.52852 | 24359 ft | 435 kts | 309° |
| 2026-04-26 02:11 | 34.33832 | -119.55539 | 24725 ft | 437 kts | 308° |
| 2026-04-26 02:11 | 34.35881 | -119.58215 | 25086 ft | 440 kts | 308° |
| 2026-04-26 02:12 | 34.37965 | -119.60937 | 25417 ft | 442 kts | 308° |
| 2026-04-26 02:12 | 34.40065 | -119.63684 | 25768 ft | 445 kts | 308° |
| 2026-04-26 02:12 | 34.42169 | -119.66438 | 26131 ft | 447 kts | 308° |
| 2026-04-26 02:12 | 34.44293 | -119.69220 | 26450 ft | 450 kts | 308° |
| 2026-04-26 02:13 | 34.46422 | -119.72011 | 26786 ft | 452 kts | 308° |
| 2026-04-26 02:13 | 34.48563 | -119.74820 | 27118 ft | 455 kts | 308° |
| 2026-04-26 02:13 | 34.50714 | -119.77646 | 27430 ft | 457 kts | 308° |
| 2026-04-26 02:13 | 34.52882 | -119.80495 | 27755 ft | 460 kts | 308° |
| 2026-04-26 02:14 | 34.55050 | -119.83351 | 28031 ft | 462 kts | 308° |
| 2026-04-26 02:14 | 34.57243 | -119.86238 | 28319 ft | 464 kts | 308° |
| 2026-04-26 02:14 | 34.59437 | -119.89126 | 28576 ft | 467 kts | 308° |
| 2026-04-26 02:14 | 34.61616 | -119.91995 | 28813 ft | 469 kts | 308° |
| 2026-04-26 02:15 | 34.63836 | -119.94926 | 29079 ft | 471 kts | 307° |
| 2026-04-26 02:15 | 34.66063 | -119.97867 | 29352 ft | 472 kts | 307° |
| 2026-04-26 02:15 | 34.68286 | -120.00804 | 29682 ft | 472 kts | 307° |
| 2026-04-26 02:15 | 34.70508 | -120.03743 | 29930 ft | 474 kts | 307° |
| 2026-04-26 02:16 | 34.72746 | -120.06708 | 29952 ft | 476 kts | 307° |
| 2026-04-26 02:16 | 34.77209 | -120.12622 | 29954 ft | 471 kts | 307° |
| 2026-04-26 02:17 | 34.81634 | -120.18497 | 29969 ft | 471 kts | 307° |
| 2026-04-26 02:17 | 34.86057 | -120.24385 | 29966 ft | 471 kts | 308° |
| 2026-04-26 02:18 | 34.90478 | -120.30277 | 29967 ft | 472 kts | 308° |
| 2026-04-26 02:18 | 34.94876 | -120.36151 | 29964 ft | 473 kts | 308° |
| 2026-04-26 02:19 | 34.99310 | -120.42079 | 29960 ft | 473 kts | 308° |
| 2026-04-26 02:19 | 35.03749 | -120.48026 | 29958 ft | 473 kts | 308° |
| 2026-04-26 02:20 | 35.07429 | -120.52965 | 29966 ft | 473 kts | 308° |
| 2026-04-26 02:20 | 35.11860 | -120.58920 | 29961 ft | 473 kts | 308° |
| 2026-04-26 02:21 | 35.16286 | -120.64877 | 29950 ft | 473 kts | 308° |
| 2026-04-26 02:21 | 35.20707 | -120.70840 | 29958 ft | 473 kts | 309° |
| 2026-04-26 02:22 | 35.25123 | -120.76809 | 29960 ft | 473 kts | 309° |
| 2026-04-26 02:22 | 35.29515 | -120.82753 | 29960 ft | 473 kts | 309° |
| 2026-04-26 02:23 | 35.33935 | -120.88745 | 29963 ft | 474 kts | 309° |
| 2026-04-26 02:23 | 35.38358 | -120.94754 | 29963 ft | 475 kts | 309° |
| 2026-04-26 02:24 | 35.42791 | -121.00787 | 29968 ft | 476 kts | 309° |
| 2026-04-26 02:24 | 35.47220 | -121.06823 | 29958 ft | 476 kts | 310° |
| 2026-04-26 02:25 | 35.51600 | -121.12934 | 29959 ft | 476 kts | 308° |
| 2026-04-26 02:25 | 35.55857 | -121.19100 | 29957 ft | 476 kts | 308° |
| 2026-04-26 02:26 | 35.60146 | -121.25325 | 29957 ft | 477 kts | 309° |
| 2026-04-26 02:26 | 35.64442 | -121.31539 | 29952 ft | 477 kts | 309° |
| 2026-04-26 02:27 | 35.68748 | -121.37762 | 29954 ft | 478 kts | 309° |
| 2026-04-26 02:27 | 35.73049 | -121.43992 | 29957 ft | 478 kts | 309° |
| 2026-04-26 02:28 | 35.77354 | -121.50239 | 29950 ft | 478 kts | 309° |
| 2026-04-26 02:28 | 35.81665 | -121.56507 | 29952 ft | 479 kts | 310° |
| 2026-04-26 02:29 | 35.85970 | -121.62778 | 29949 ft | 480 kts | 310° |
| 2026-04-26 02:29 | 35.90260 | -121.69040 | 29951 ft | 481 kts | 310° |
| 2026-04-26 02:30 | 35.94575 | -121.75348 | 29949 ft | 480 kts | 310° |
| 2026-04-26 02:30 | 35.99093 | -121.81432 | 29942 ft | 479 kts | 320° |
| 2026-04-26 02:31 | 36.04447 | -121.86190 | 29945 ft | 477 kts | 332° |
| 2026-04-26 02:31 | 36.10357 | -121.89900 | 29951 ft | 476 kts | 335° |
| 2026-04-26 02:32 | 36.16307 | -121.93533 | 29951 ft | 476 kts | 335° |
| 2026-04-26 02:32 | 36.22233 | -121.97204 | 29947 ft | 476 kts | 334° |
| 2026-04-26 02:33 | 36.28135 | -122.00902 | 29943 ft | 475 kts | 334° |
| 2026-04-26 02:33 | 36.34014 | -122.04602 | 29945 ft | 473 kts | 334° |
| 2026-04-26 02:34 | 36.39835 | -122.08271 | 29942 ft | 471 kts | 334° |
| 2026-04-26 02:34 | 36.45677 | -122.11957 | 29947 ft | 470 kts | 334° |
| 2026-04-26 02:35 | 36.51507 | -122.15642 | 29946 ft | 469 kts | 334° |
| 2026-04-26 02:35 | 36.57334 | -122.19331 | 29947 ft | 470 kts | 334° |
| 2026-04-26 02:36 | 36.63161 | -122.23026 | 29948 ft | 470 kts | 334° |
| 2026-04-26 02:36 | 36.68964 | -122.26712 | 29943 ft | 471 kts | 334° |
| 2026-04-26 02:37 | 36.74821 | -122.30439 | 29940 ft | 473 kts | 334° |
| 2026-04-26 02:37 | 36.80683 | -122.34175 | 29956 ft | 474 kts | 334° |
| 2026-04-26 02:38 | 36.86558 | -122.37927 | 29946 ft | 474 kts | 334° |
| 2026-04-26 02:38 | 36.92434 | -122.41686 | 29931 ft | 475 kts | 334° |
| 2026-04-26 02:39 | 36.98325 | -122.45461 | 29925 ft | 475 kts | 334° |
| 2026-04-26 02:39 | 37.04218 | -122.49244 | 29926 ft | 475 kts | 334° |
| 2026-04-26 02:40 | 37.10064 | -122.53004 | 29932 ft | 476 kts | 334° |
| 2026-04-26 02:40 | 37.15952 | -122.56798 | 29919 ft | 476 kts | 334° |
| 2026-04-26 02:41 | 37.21841 | -122.60598 | 29928 ft | 476 kts | 334° |
| 2026-04-26 02:41 | 37.24708 | -122.62665 | 29902 ft | 475 kts | 323° |
| 2026-04-26 02:41 | 37.27029 | -122.65601 | 29931 ft | 478 kts | 306° |
| 2026-04-26 02:41 | 37.28566 | -122.69306 | 29938 ft | 481 kts | 290° |
| 2026-04-26 02:42 | 37.29355 | -122.73393 | 29920 ft | 485 kts | 277° |
| 2026-04-26 02:42 | 37.29359 | -122.77630 | 29905 ft | 486 kts | 264° |
| 2026-04-26 02:42 | 37.28859 | -122.81822 | 29925 ft | 487 kts | 262° |
| 2026-04-26 02:43 | 37.27118 | -122.94465 | 29921 ft | 492 kts | 261° |
| 2026-04-26 02:43 | 37.26013 | -123.02963 | 29918 ft | 492 kts | 262° |
| 2026-04-26 02:44 | 37.24958 | -123.11444 | 29914 ft | 492 kts | 262° |
| 2026-04-26 02:44 | 37.23917 | -123.19863 | 29919 ft | 490 kts | 262° |
| 2026-04-26 02:45 | 37.22865 | -123.28306 | 29920 ft | 488 kts | 262° |
| 2026-04-26 02:45 | 37.21806 | -123.36724 | 29915 ft | 487 kts | 262° |
| 2026-04-26 02:46 | 37.20743 | -123.45116 | 29920 ft | 487 kts | 262° |
| 2026-04-26 02:46 | 37.19673 | -123.53519 | 29916 ft | 487 kts | 262° |
| 2026-04-26 02:47 | 37.18596 | -123.61928 | 29923 ft | 488 kts | 262° |
| 2026-04-26 02:47 | 37.17517 | -123.70298 | 29920 ft | 490 kts | 262° |
| 2026-04-26 02:48 | 37.16424 | -123.78735 | 29920 ft | 490 kts | 262° |
| 2026-04-26 02:48 | 37.15322 | -123.87191 | 29926 ft | 491 kts | 261° |
| 2026-04-26 02:49 | 37.14215 | -123.95635 | 29928 ft | 491 kts | 262° |
| 2026-04-26 02:49 | 37.13101 | -124.04079 | 29927 ft | 490 kts | 261° |
| 2026-04-26 02:50 | 37.11992 | -124.12445 | 29926 ft | 489 kts | 261° |
| 2026-04-26 02:50 | 37.10871 | -124.20857 | 29927 ft | 488 kts | 261° |
| 2026-04-26 02:51 | 37.09747 | -124.29239 | 29929 ft | 487 kts | 261° |
| 2026-04-26 02:51 | 37.08619 | -124.37606 | 29928 ft | 486 kts | 261° |
| 2026-04-26 02:52 | 37.07487 | -124.45955 | 29931 ft | 486 kts | 261° |
| 2026-04-26 02:52 | 37.06357 | -124.54247 | 29930 ft | 485 kts | 261° |
| 2026-04-26 02:53 | 37.05218 | -124.62565 | 29936 ft | 485 kts | 261° |
| 2026-04-26 02:53 | 37.04071 | -124.70888 | 29935 ft | 485 kts | 261° |
| 2026-04-26 02:54 | 37.02920 | -124.79206 | 29935 ft | 485 kts | 261° |
| 2026-04-26 02:54 | 37.01761 | -124.87537 | 29936 ft | 486 kts | 261° |
| 2026-04-26 02:55 | 37.00683 | -124.95894 | 29934 ft | 485 kts | 267° |
| 2026-04-26 02:55 | 37.00973 | -125.04295 | 29949 ft | 482 kts | 281° |
| 2026-04-26 02:56 | 37.02613 | -125.12363 | 29943 ft | 482 kts | 288° |
| 2026-04-26 02:56 | 37.04478 | -125.20427 | 29946 ft | 483 kts | 288° |
| 2026-04-26 02:57 | 37.06320 | -125.28543 | 29948 ft | 485 kts | 287° |
| 2026-04-26 02:57 | 37.08128 | -125.36685 | 29946 ft | 485 kts | 287° |
| 2026-04-26 02:58 | 37.09918 | -125.44833 | 29946 ft | 485 kts | 287° |
| 2026-04-26 02:58 | 37.11694 | -125.52943 | 29948 ft | 484 kts | 287° |
| 2026-04-26 02:59 | 37.13470 | -125.61074 | 29953 ft | 483 kts | 287° |
| 2026-04-26 02:59 | 37.15238 | -125.69197 | 29951 ft | 482 kts | 287° |
| 2026-04-26 03:00 | 37.16995 | -125.77303 | 29953 ft | 481 kts | 287° |
| 2026-04-26 03:00 | 37.18744 | -125.85390 | 29955 ft | 480 kts | 287° |
| 2026-04-26 03:01 | 37.20486 | -125.93477 | 29955 ft | 479 kts | 287° |
| 2026-04-26 03:01 | 37.22220 | -126.01559 | 29955 ft | 479 kts | 287° |
| 2026-04-26 03:02 | 37.23934 | -126.09577 | 29961 ft | 478 kts | 287° |
| 2026-04-26 03:02 | 37.25652 | -126.17641 | 29957 ft | 478 kts | 287° |
| 2026-04-26 03:03 | 37.27364 | -126.25707 | 29965 ft | 478 kts | 287° |
| 2026-04-26 03:03 | 37.29071 | -126.33782 | 29964 ft | 478 kts | 287° |
| 2026-04-26 03:04 | 37.30772 | -126.41855 | 29969 ft | 478 kts | 287° |
| 2026-04-26 03:04 | 37.32468 | -126.49936 | 29970 ft | 478 kts | 287° |
| 2026-04-26 03:05 | 37.34161 | -126.58029 | 29967 ft | 478 kts | 286° |
| 2026-04-26 03:05 | 37.35836 | -126.66065 | 29977 ft | 478 kts | 287° |
| 2026-04-26 03:06 | 37.37521 | -126.74182 | 29975 ft | 478 kts | 286° |
| 2026-04-26 03:06 | 37.39196 | -126.82282 | 29974 ft | 478 kts | 286° |
| 2026-04-26 03:07 | 37.40855 | -126.90336 | 29977 ft | 478 kts | 286° |
| 2026-04-26 03:07 | 37.42522 | -126.98458 | 29977 ft | 478 kts | 286° |
| 2026-04-26 03:08 | 37.43900 | -127.05192 | 29975 ft | 478 kts | 286° |
| 2026-04-26 03:08 | 37.45552 | -127.13301 | 29980 ft | 478 kts | 286° |
| 2026-04-26 03:09 | 37.47201 | -127.21417 | 29982 ft | 478 kts | 286° |
| 2026-04-26 03:09 | 37.48845 | -127.29542 | 29988 ft | 478 kts | 286° |
| 2026-04-26 03:10 | 37.50484 | -127.37670 | 29987 ft | 478 kts | 286° |
| 2026-04-26 03:10 | 37.52114 | -127.45797 | 29988 ft | 478 kts | 286° |
| 2026-04-26 03:11 | 37.53741 | -127.53932 | 29990 ft | 479 kts | 285° |
| 2026-04-26 03:11 | 37.55364 | -127.62071 | 29992 ft | 479 kts | 286° |
| 2026-04-26 03:12 | 37.56972 | -127.70172 | 29999 ft | 479 kts | 285° |
| 2026-04-26 03:12 | 37.58584 | -127.78333 | 29992 ft | 480 kts | 285° |
| 2026-04-26 03:13 | 37.60199 | -127.86531 | 29997 ft | 481 kts | 285° |
| 2026-04-26 03:13 | 37.61807 | -127.94731 | 29997 ft | 482 kts | 285° |
| 2026-04-26 03:14 | 37.63402 | -128.02905 | 29997 ft | 483 kts | 285° |
| 2026-04-26 03:14 | 37.65007 | -128.11150 | 30004 ft | 485 kts | 285° |
| 2026-04-26 03:15 | 37.66613 | -128.19429 | 30012 ft | 486 kts | 285° |
| 2026-04-26 03:15 | 37.68216 | -128.27736 | 30008 ft | 487 kts | 285° |
| 2026-04-26 03:16 | 37.69818 | -128.36073 | 30011 ft | 488 kts | 285° |
| 2026-04-26 03:16 | 37.71417 | -128.44427 | 30014 ft | 489 kts | 285° |
| 2026-04-26 03:17 | 37.73002 | -128.52740 | 30017 ft | 490 kts | 285° |
| 2026-04-26 03:17 | 37.74593 | -128.61119 | 30017 ft | 490 kts | 285° |
| 2026-04-26 03:18 | 37.76179 | -128.69508 | 30016 ft | 491 kts | 285° |
| 2026-04-26 03:18 | 37.77763 | -128.77921 | 30022 ft | 491 kts | 285° |
| 2026-04-26 03:19 | 37.79330 | -128.86278 | 30022 ft | 491 kts | 285° |
| 2026-04-26 03:19 | 37.80901 | -128.94693 | 30020 ft | 491 kts | 285° |
| 2026-04-26 03:20 | 37.82464 | -129.03102 | 30022 ft | 492 kts | 285° |
| 2026-04-26 03:20 | 37.84025 | -129.11533 | 30024 ft | 492 kts | 285° |
| 2026-04-26 03:21 | 37.85581 | -129.19975 | 30024 ft | 492 kts | 285° |
| 2026-04-26 03:21 | 37.87131 | -129.28418 | 30031 ft | 493 kts | 285° |
| 2026-04-26 03:22 | 37.88668 | -129.36831 | 30033 ft | 493 kts | 285° |
| 2026-04-26 03:22 | 37.90208 | -129.45291 | 30045 ft | 494 kts | 285° |
| 2026-04-26 03:23 | 37.91744 | -129.53771 | 30028 ft | 494 kts | 285° |
| 2026-04-26 03:23 | 37.93274 | -129.62256 | 30039 ft | 494 kts | 285° |
| 2026-04-26 03:24 | 37.94797 | -129.70739 | 30049 ft | 493 kts | 285° |
| 2026-04-26 03:24 | 37.96304 | -129.79167 | 30050 ft | 493 kts | 285° |
| 2026-04-26 03:25 | 37.97814 | -129.87651 | 30041 ft | 492 kts | 285° |
| 2026-04-26 03:25 | 37.99316 | -129.96120 | 30034 ft | 492 kts | 285° |
| 2026-04-26 03:26 | 38.00309 | -130.04712 | 30054 ft | 494 kts | 275° |
| 2026-04-26 03:26 | 38.00632 | -130.13424 | 30041 ft | 494 kts | 274° |
| 2026-04-26 03:27 | 38.00934 | -130.22130 | 30048 ft | 494 kts | 275° |
| 2026-04-26 03:27 | 38.01262 | -130.30834 | 30055 ft | 494 kts | 275° |
| 2026-04-26 03:28 | 38.01602 | -130.39491 | 30058 ft | 494 kts | 275° |
| 2026-04-26 03:28 | 38.01944 | -130.48254 | 30054 ft | 494 kts | 275° |
| 2026-04-26 03:29 | 38.02275 | -130.56911 | 30061 ft | 494 kts | 275° |
| 2026-04-26 03:29 | 38.02600 | -130.65622 | 30064 ft | 494 kts | 274° |
| 2026-04-26 03:30 | 38.02918 | -130.74337 | 30066 ft | 494 kts | 274° |
| 2026-04-26 03:30 | 38.03229 | -130.83055 | 30071 ft | 494 kts | 274° |
| 2026-04-26 03:31 | 38.03532 | -130.91703 | 30073 ft | 494 kts | 274° |
| 2026-04-26 03:31 | 38.03830 | -131.00418 | 30069 ft | 494 kts | 274° |
| 2026-04-26 03:32 | 38.04123 | -131.09133 | 30075 ft | 493 kts | 274° |
| 2026-04-26 03:32 | 38.04406 | -131.17784 | 30079 ft | 493 kts | 274° |
| 2026-04-26 03:33 | 38.04685 | -131.26484 | 30077 ft | 493 kts | 274° |
| 2026-04-26 03:33 | 38.04957 | -131.35172 | 30083 ft | 493 kts | 274° |
| 2026-04-26 03:34 | 38.05223 | -131.43865 | 30080 ft | 493 kts | 274° |
| 2026-04-26 03:34 | 38.05482 | -131.52556 | 30083 ft | 493 kts | 274° |
| 2026-04-26 03:35 | 38.05735 | -131.61246 | 30089 ft | 492 kts | 274° |
| 2026-04-26 03:35 | 38.05980 | -131.69870 | 30088 ft | 492 kts | 274° |
| 2026-04-26 03:36 | 38.06220 | -131.78560 | 30089 ft | 492 kts | 274° |
| 2026-04-26 03:36 | 38.06453 | -131.87239 | 30088 ft | 492 kts | 273° |
| 2026-04-26 03:37 | 38.06680 | -131.95915 | 30093 ft | 492 kts | 273° |
| 2026-04-26 03:37 | 38.06900 | -132.04582 | 30091 ft | 492 kts | 273° |
| 2026-04-26 03:38 | 38.07115 | -132.13257 | 30096 ft | 492 kts | 273° |
| 2026-04-26 03:38 | 38.07322 | -132.21935 | 30100 ft | 491 kts | 273° |
| 2026-04-26 03:39 | 38.07524 | -132.30599 | 30103 ft | 491 kts | 273° |
| 2026-04-26 03:39 | 38.07717 | -132.39217 | 30105 ft | 491 kts | 273° |
| 2026-04-26 03:40 | 38.07905 | -132.47882 | 30108 ft | 490 kts | 273° |
| 2026-04-26 03:40 | 38.08088 | -132.56532 | 30105 ft | 490 kts | 272° |
| 2026-04-26 03:41 | 38.08263 | -132.65179 | 30109 ft | 490 kts | 272° |
| 2026-04-26 03:41 | 38.08432 | -132.73825 | 30112 ft | 490 kts | 272° |
| 2026-04-26 03:42 | 38.08594 | -132.82452 | 30114 ft | 489 kts | 272° |
| 2026-04-26 03:42 | 38.08750 | -132.91087 | 30116 ft | 489 kts | 272° |
| 2026-04-26 03:43 | 38.08900 | -132.99712 | 30116 ft | 488 kts | 272° |
| 2026-04-26 03:43 | 38.09042 | -133.08280 | 30124 ft | 488 kts | 272° |
| 2026-04-26 03:44 | 38.09179 | -133.16908 | 30124 ft | 489 kts | 272° |
| 2026-04-26 03:44 | 38.09311 | -133.25541 | 30124 ft | 489 kts | 272° |
| 2026-04-26 03:45 | 38.09435 | -133.34169 | 30130 ft | 488 kts | 272° |
| 2026-04-26 03:45 | 38.09553 | -133.42795 | 30131 ft | 488 kts | 271° |
| 2026-04-26 03:46 | 38.09664 | -133.51404 | 30126 ft | 487 kts | 271° |
| 2026-04-26 03:47 | 38.09819 | -133.64260 | 30130 ft | 487 kts | 271° |
| 2026-04-26 03:47 | 38.09914 | -133.72853 | 30128 ft | 487 kts | 271° |
| 2026-04-26 03:48 | 38.10005 | -133.81457 | 30140 ft | 487 kts | 271° |
| 2026-04-26 03:48 | 38.10088 | -133.90048 | 30140 ft | 486 kts | 271° |
| 2026-04-26 03:49 | 38.10165 | -133.98634 | 30147 ft | 486 kts | 271° |
| 2026-04-26 03:49 | 38.10235 | -134.07208 | 30152 ft | 485 kts | 271° |
| 2026-04-26 03:50 | 38.10299 | -134.15766 | 30147 ft | 484 kts | 270° |
| 2026-04-26 03:50 | 38.10357 | -134.24256 | 30150 ft | 484 kts | 270° |
| 2026-04-26 03:51 | 38.10409 | -134.32805 | 30155 ft | 483 kts | 270° |
| 2026-04-26 03:51 | 38.10454 | -134.41350 | 30155 ft | 483 kts | 270° |
| 2026-04-26 03:52 | 38.10494 | -134.49866 | 30160 ft | 482 kts | 270° |
| 2026-04-26 03:52 | 38.10527 | -134.58388 | 30158 ft | 482 kts | 270° |
| 2026-04-26 03:53 | 38.10554 | -134.66905 | 30163 ft | 482 kts | 270° |
| 2026-04-26 03:53 | 38.10574 | -134.75352 | 30165 ft | 482 kts | 270° |
| 2026-04-26 03:54 | 38.10589 | -134.83861 | 30167 ft | 481 kts | 270° |
| 2026-04-26 03:54 | 38.10598 | -134.92367 | 30168 ft | 481 kts | 270° |
| 2026-04-26 03:55 | 38.10600 | -135.00869 | 30174 ft | 481 kts | 270° |
| 2026-04-26 03:55 | 38.10596 | -135.09369 | 30173 ft | 482 kts | 270° |
| 2026-04-26 03:56 | 38.10587 | -135.17871 | 30176 ft | 482 kts | 270° |
| 2026-04-26 03:56 | 38.10574 | -135.24954 | 30177 ft | 482 kts | 269° |
| 2026-04-26 03:57 | 38.10553 | -135.33460 | 30175 ft | 482 kts | 269° |
| 2026-04-26 03:57 | 38.10525 | -135.41977 | 30177 ft | 482 kts | 269° |
| 2026-04-26 03:58 | 38.10492 | -135.50493 | 30183 ft | 482 kts | 269° |
| 2026-04-26 03:58 | 38.10452 | -135.58965 | 30179 ft | 482 kts | 269° |
| 2026-04-26 03:59 | 38.10407 | -135.67480 | 30183 ft | 482 kts | 269° |
| 2026-04-26 03:59 | 38.10355 | -135.75994 | 30186 ft | 482 kts | 269° |
| 2026-04-26 04:00 | 38.10297 | -135.84511 | 30188 ft | 482 kts | 269° |
| 2026-04-26 04:00 | 38.10234 | -135.92975 | 30192 ft | 482 kts | 269° |
| 2026-04-26 04:01 | 38.10163 | -136.01491 | 30195 ft | 482 kts | 269° |
| 2026-04-26 04:01 | 38.10087 | -136.10013 | 30197 ft | 481 kts | 269° |
| 2026-04-26 04:02 | 38.10005 | -136.18506 | 30200 ft | 481 kts | 269° |
| 2026-04-26 04:02 | 38.09917 | -136.26944 | 30202 ft | 481 kts | 269° |
| 2026-04-26 04:03 | 38.09822 | -136.35441 | 30201 ft | 480 kts | 269° |
| 2026-04-26 04:03 | 38.09722 | -136.43914 | 30205 ft | 480 kts | 269° |
| 2026-04-26 04:04 | 38.09616 | -136.52378 | 30202 ft | 478 kts | 269° |
| 2026-04-26 04:04 | 38.09504 | -136.60820 | 30212 ft | 477 kts | 269° |
| 2026-04-26 04:05 | 38.09387 | -136.69186 | 30222 ft | 477 kts | 269° |
| 2026-04-26 04:05 | 38.09263 | -136.77606 | 30206 ft | 476 kts | 269° |
| 2026-04-26 04:06 | 38.09133 | -136.86014 | 30211 ft | 475 kts | 269° |
| 2026-04-26 04:06 | 38.08999 | -136.94382 | 30217 ft | 474 kts | 269° |
| 2026-04-26 04:07 | 38.08858 | -137.02741 | 30217 ft | 472 kts | 269° |
| 2026-04-26 04:07 | 38.08712 | -137.11077 | 30220 ft | 472 kts | 269° |
| 2026-04-26 04:08 | 38.08560 | -137.19400 | 30222 ft | 472 kts | 269° |
| 2026-04-26 04:08 | 38.08403 | -137.27682 | 30227 ft | 472 kts | 269° |
| 2026-04-26 04:09 | 38.08239 | -137.36021 | 30230 ft | 472 kts | 269° |
| 2026-04-26 04:09 | 38.08070 | -137.44305 | 30225 ft | 471 kts | 269° |
| 2026-04-26 04:10 | 38.07895 | -137.52616 | 30230 ft | 471 kts | 269° |
| 2026-04-26 04:10 | 38.07714 | -137.60931 | 30235 ft | 471 kts | 269° |
| 2026-04-26 04:11 | 38.07527 | -137.69238 | 30234 ft | 471 kts | 269° |
| 2026-04-26 04:11 | 38.07335 | -137.77549 | 30234 ft | 470 kts | 269° |
| 2026-04-26 04:12 | 38.07136 | -137.85845 | 30234 ft | 470 kts | 269° |
| 2026-04-26 04:12 | 38.06933 | -137.94122 | 30243 ft | 469 kts | 269° |
| 2026-04-26 04:13 | 38.06726 | -138.02339 | 30243 ft | 468 kts | 269° |
| 2026-04-26 04:13 | 38.06511 | -138.10590 | 30244 ft | 467 kts | 269° |
| 2026-04-26 04:14 | 38.06291 | -138.18835 | 30247 ft | 466 kts | 269° |
| 2026-04-26 04:14 | 38.06067 | -138.27012 | 30247 ft | 466 kts | 269° |
| 2026-04-26 04:15 | 38.05837 | -138.35223 | 30250 ft | 465 kts | 269° |
| 2026-04-26 04:15 | 38.05600 | -138.43432 | 30258 ft | 465 kts | 269° |
| 2026-04-26 04:16 | 38.05359 | -138.51634 | 30251 ft | 465 kts | 269° |
| 2026-04-26 04:16 | 38.05111 | -138.59844 | 30262 ft | 466 kts | 269° |
| 2026-04-26 04:17 | 38.04857 | -138.68060 | 30257 ft | 466 kts | 269° |
| 2026-04-26 04:17 | 38.04599 | -138.76224 | 30267 ft | 465 kts | 269° |
| 2026-04-26 04:18 | 38.04334 | -138.84434 | 30269 ft | 465 kts | 270° |
| 2026-04-26 04:18 | 38.04065 | -138.92614 | 30267 ft | 464 kts | 270° |
| 2026-04-26 04:19 | 38.03789 | -139.00792 | 30263 ft | 462 kts | 270° |
| 2026-04-26 04:19 | 38.03512 | -139.08882 | 30280 ft | 461 kts | 270° |
| 2026-04-26 04:20 | 38.03227 | -139.17001 | 30270 ft | 460 kts | 270° |
| 2026-04-26 04:20 | 38.02939 | -139.25086 | 30276 ft | 458 kts | 270° |
| 2026-04-26 04:21 | 38.02644 | -139.33166 | 30280 ft | 457 kts | 270° |
| 2026-04-26 04:21 | 38.02348 | -139.41170 | 30275 ft | 457 kts | 270° |
| 2026-04-26 04:22 | 38.02044 | -139.49223 | 30291 ft | 456 kts | 271° |
| 2026-04-26 04:22 | 38.01735 | -139.57263 | 30279 ft | 456 kts | 271° |
| 2026-04-26 04:23 | 38.01420 | -139.65298 | 30295 ft | 456 kts | 271° |
| 2026-04-26 04:23 | 38.01100 | -139.73328 | 30294 ft | 455 kts | 271° |
| 2026-04-26 04:24 | 38.00776 | -139.81349 | 30294 ft | 455 kts | 271° |
| 2026-04-26 04:24 | 38.00449 | -139.89304 | 30290 ft | 454 kts | 271° |
| 2026-04-26 04:25 | 38.00114 | -139.97300 | 30295 ft | 453 kts | 271° |
| 2026-04-26 04:25 | 37.99267 | -140.05232 | 30303 ft | 458 kts | 264° |
| 2026-04-26 04:26 | 37.98008 | -140.13145 | 30295 ft | 458 kts | 263° |
| 2026-04-26 04:26 | 37.96754 | -140.21060 | 30297 ft | 457 kts | 264° |
| 2026-04-26 04:27 | 37.95510 | -140.28989 | 30301 ft | 457 kts | 264° |
| 2026-04-26 04:27 | 37.94275 | -140.36886 | 30309 ft | 457 kts | 264° |
| 2026-04-26 04:28 | 37.93046 | -140.44722 | 30305 ft | 457 kts | 264° |
| 2026-04-26 04:28 | 37.91800 | -140.52622 | 30308 ft | 457 kts | 264° |
| 2026-04-26 04:29 | 37.90550 | -140.60512 | 30311 ft | 456 kts | 264° |
| 2026-04-26 04:29 | 37.89295 | -140.68396 | 30310 ft | 456 kts | 264° |
| 2026-04-26 04:30 | 37.88032 | -140.76296 | 30308 ft | 456 kts | 264° |
| 2026-04-26 04:30 | 37.86772 | -140.84142 | 30310 ft | 456 kts | 264° |
| 2026-04-26 04:31 | 37.85507 | -140.91979 | 30309 ft | 456 kts | 264° |
| 2026-04-26 04:31 | 37.84232 | -140.99846 | 30290 ft | 456 kts | 264° |
| 2026-04-26 04:32 | 37.82952 | -141.07704 | 30312 ft | 455 kts | 264° |
| 2026-04-26 04:32 | 37.81672 | -141.15529 | 30315 ft | 454 kts | 264° |
| 2026-04-26 04:33 | 37.80393 | -141.23319 | 30317 ft | 454 kts | 264° |
| 2026-04-26 04:33 | 37.79106 | -141.31125 | 30318 ft | 453 kts | 264° |
| 2026-04-26 04:34 | 37.77812 | -141.38933 | 30329 ft | 453 kts | 264° |
| 2026-04-26 04:34 | 37.76514 | -141.46735 | 30324 ft | 453 kts | 264° |
| 2026-04-26 04:35 | 37.75209 | -141.54549 | 30325 ft | 454 kts | 264° |
| 2026-04-26 04:35 | 37.73902 | -141.62335 | 30338 ft | 454 kts | 264° |
| 2026-04-26 04:36 | 37.72584 | -141.70158 | 30326 ft | 455 kts | 264° |
| 2026-04-26 04:36 | 37.71271 | -141.77914 | 30320 ft | 455 kts | 264° |
| 2026-04-26 04:37 | 37.69999 | -141.85394 | 30329 ft | 455 kts | 264° |
| 2026-04-26 04:37 | 37.68662 | -141.93226 | 30335 ft | 455 kts | 263° |
| 2026-04-26 04:38 | 37.67331 | -142.00994 | 30332 ft | 455 kts | 263° |
| 2026-04-26 04:38 | 37.65984 | -142.08822 | 30338 ft | 455 kts | 263° |
| 2026-04-26 04:39 | 37.64632 | -142.16643 | 30341 ft | 455 kts | 263° |
| 2026-04-26 04:39 | 37.63284 | -142.24411 | 30337 ft | 455 kts | 263° |
| 2026-04-26 04:40 | 37.61922 | -142.32224 | 30332 ft | 455 kts | 263° |
| 2026-04-26 04:40 | 37.60556 | -142.40029 | 30339 ft | 455 kts | 263° |
| 2026-04-26 04:41 | 37.59194 | -142.47781 | 30339 ft | 455 kts | 263° |
| 2026-04-26 04:41 | 37.57815 | -142.55597 | 30346 ft | 456 kts | 263° |
| 2026-04-26 04:42 | 37.56431 | -142.63414 | 30344 ft | 456 kts | 263° |
| 2026-04-26 04:42 | 37.55050 | -142.71175 | 30343 ft | 456 kts | 263° |
| 2026-04-26 04:43 | 37.53655 | -142.78985 | 30343 ft | 457 kts | 263° |
| 2026-04-26 04:43 | 37.52252 | -142.86808 | 30343 ft | 458 kts | 263° |
| 2026-04-26 04:44 | 37.51078 | -142.93335 | 30346 ft | 459 kts | 263° |
| 2026-04-26 04:44 | 37.49430 | -143.02453 | 30347 ft | 460 kts | 263° |
| 2026-04-26 04:45 | 37.48243 | -143.08993 | 30348 ft | 460 kts | 263° |
| 2026-04-26 04:45 | 37.46808 | -143.16870 | 30352 ft | 461 kts | 263° |
| 2026-04-26 04:46 | 37.45369 | -143.24739 | 30347 ft | 462 kts | 263° |
| 2026-04-26 04:46 | 37.43919 | -143.32640 | 30353 ft | 463 kts | 263° |
| 2026-04-26 04:47 | 37.42467 | -143.40514 | 30352 ft | 463 kts | 263° |
| 2026-04-26 04:47 | 37.41007 | -143.48407 | 30351 ft | 464 kts | 263° |
| 2026-04-26 04:48 | 37.38794 | -143.60304 | 30357 ft | 466 kts | 263° |
| 2026-04-26 04:48 | 37.37316 | -143.68210 | 30360 ft | 467 kts | 263° |
| 2026-04-26 04:49 | 37.35821 | -143.76177 | 30353 ft | 469 kts | 263° |
| 2026-04-26 04:49 | 37.34318 | -143.84157 | 30356 ft | 470 kts | 263° |
| 2026-04-26 04:50 | 37.32803 | -143.92166 | 30356 ft | 471 kts | 263° |
| 2026-04-26 04:50 | 37.31279 | -144.00185 | 30357 ft | 471 kts | 264° |
| 2026-04-26 04:51 | 37.29760 | -144.08155 | 30356 ft | 472 kts | 264° |
| 2026-04-26 04:51 | 37.28223 | -144.16180 | 30350 ft | 472 kts | 264° |
| 2026-04-26 04:52 | 37.26682 | -144.24200 | 30354 ft | 472 kts | 264° |
| 2026-04-26 04:52 | 37.25132 | -144.32232 | 30357 ft | 472 kts | 264° |
| 2026-04-26 04:53 | 37.23588 | -144.40201 | 30353 ft | 472 kts | 264° |
| 2026-04-26 04:53 | 37.22030 | -144.48219 | 30358 ft | 472 kts | 264° |
| 2026-04-26 04:54 | 37.20468 | -144.56226 | 30357 ft | 472 kts | 264° |
| 2026-04-26 04:54 | 37.18908 | -144.64189 | 30353 ft | 472 kts | 264° |
| 2026-04-26 04:55 | 37.17332 | -144.72200 | 30359 ft | 472 kts | 264° |
| 2026-04-26 04:55 | 37.15763 | -144.80144 | 30358 ft | 472 kts | 264° |
| 2026-04-26 04:56 | 37.14178 | -144.88143 | 30361 ft | 472 kts | 264° |
| 2026-04-26 04:56 | 37.12584 | -144.96156 | 30375 ft | 472 kts | 264° |
| 2026-04-26 04:57 | 37.11000 | -145.04088 | 30366 ft | 472 kts | 264° |
| 2026-04-26 04:57 | 37.09399 | -145.12074 | 30352 ft | 472 kts | 263° |
| 2026-04-26 04:58 | 37.07794 | -145.20049 | 30353 ft | 471 kts | 263° |
| 2026-04-26 04:58 | 37.06193 | -145.27974 | 30353 ft | 471 kts | 263° |
| 2026-04-26 04:59 | 37.04582 | -145.35924 | 30354 ft | 470 kts | 263° |
| 2026-04-26 04:59 | 37.02975 | -145.43819 | 30359 ft | 469 kts | 262° |
| 2026-04-26 05:00 | 37.01362 | -145.51719 | 30356 ft | 468 kts | 262° |
| 2026-04-26 05:00 | 36.99741 | -145.59624 | 30357 ft | 467 kts | 262° |
| 2026-04-26 05:01 | 36.98133 | -145.67446 | 30356 ft | 467 kts | 262° |
| 2026-04-26 05:01 | 36.96507 | -145.75322 | 30360 ft | 466 kts | 262° |
| 2026-04-26 05:02 | 36.94887 | -145.83144 | 30356 ft | 467 kts | 262° |
| 2026-04-26 05:02 | 36.93250 | -145.91017 | 30353 ft | 468 kts | 262° |
| 2026-04-26 05:03 | 36.91606 | -145.98895 | 30360 ft | 469 kts | 262° |
| 2026-04-26 05:03 | 36.89960 | -146.06754 | 30361 ft | 470 kts | 262° |
| 2026-04-26 05:04 | 36.88297 | -146.14666 | 30363 ft | 471 kts | 262° |
| 2026-04-26 05:04 | 36.86633 | -146.22560 | 30356 ft | 473 kts | 262° |
| 2026-04-26 05:05 | 36.84945 | -146.30536 | 30361 ft | 475 kts | 262° |
| 2026-04-26 05:05 | 36.83247 | -146.38526 | 30361 ft | 477 kts | 262° |
| 2026-04-26 05:06 | 36.81535 | -146.46551 | 30361 ft | 479 kts | 262° |
| 2026-04-26 05:06 | 36.79815 | -146.54588 | 30360 ft | 480 kts | 262° |
| 2026-04-26 05:07 | 36.78084 | -146.62650 | 30356 ft | 482 kts | 262° |
| 2026-04-26 05:07 | 36.76349 | -146.70696 | 30356 ft | 483 kts | 262° |
| 2026-04-26 05:08 | 36.74598 | -146.78794 | 30355 ft | 484 kts | 262° |
| 2026-04-26 05:08 | 36.72831 | -146.86930 | 30352 ft | 486 kts | 262° |
| 2026-04-26 05:09 | 36.71063 | -146.95046 | 30353 ft | 487 kts | 262° |
| 2026-04-26 05:09 | 36.69276 | -147.03219 | 30351 ft | 488 kts | 262° |
| 2026-04-26 05:10 | 36.67490 | -147.11355 | 30356 ft | 489 kts | 262° |
| 2026-04-26 05:10 | 36.65686 | -147.19546 | 30347 ft | 489 kts | 262° |
| 2026-04-26 05:11 | 36.63889 | -147.27675 | 30346 ft | 489 kts | 262° |
| 2026-04-26 05:11 | 36.62077 | -147.35845 | 30348 ft | 489 kts | 262° |
| 2026-04-26 05:12 | 36.60258 | -147.44017 | 30340 ft | 488 kts | 261° |
| 2026-04-26 05:12 | 36.58449 | -147.52114 | 30346 ft | 488 kts | 261° |
| 2026-04-26 05:13 | 36.56626 | -147.60248 | 30345 ft | 488 kts | 261° |
| 2026-04-26 05:13 | 36.54797 | -147.68376 | 30346 ft | 488 kts | 261° |
| 2026-04-26 05:14 | 36.52959 | -147.76519 | 30341 ft | 487 kts | 261° |
| 2026-04-26 05:14 | 36.51125 | -147.84619 | 30347 ft | 487 kts | 261° |
| 2026-04-26 05:15 | 36.49291 | -147.92686 | 30340 ft | 487 kts | 261° |
| 2026-04-26 05:15 | 36.47439 | -148.00809 | 30346 ft | 488 kts | 261° |
| 2026-04-26 05:16 | 36.45581 | -148.08928 | 30347 ft | 488 kts | 261° |
| 2026-04-26 05:16 | 36.43717 | -148.17045 | 30342 ft | 488 kts | 261° |
| 2026-04-26 05:17 | 36.41850 | -148.25145 | 30341 ft | 488 kts | 261° |
| 2026-04-26 05:17 | 36.39983 | -148.33221 | 30339 ft | 488 kts | 261° |
| 2026-04-26 05:18 | 36.38102 | -148.41327 | 30340 ft | 488 kts | 261° |
| 2026-04-26 05:18 | 36.36228 | -148.49373 | 30338 ft | 488 kts | 261° |
| 2026-04-26 05:19 | 36.34334 | -148.57482 | 30339 ft | 488 kts | 261° |
| 2026-04-26 05:19 | 36.32441 | -148.65560 | 30338 ft | 488 kts | 261° |
| 2026-04-26 05:20 | 36.30541 | -148.73638 | 30339 ft | 488 kts | 261° |
| 2026-04-26 05:20 | 36.28649 | -148.81658 | 30338 ft | 488 kts | 261° |
| 2026-04-26 05:21 | 36.26741 | -148.89719 | 30338 ft | 487 kts | 261° |
| 2026-04-26 05:21 | 36.24827 | -148.97781 | 30336 ft | 487 kts | 261° |
| 2026-04-26 05:22 | 36.22908 | -149.05832 | 30338 ft | 487 kts | 260° |
| 2026-04-26 05:22 | 36.20987 | -149.13868 | 30337 ft | 487 kts | 260° |
| 2026-04-26 05:23 | 36.19056 | -149.21917 | 30336 ft | 487 kts | 260° |
| 2026-04-26 05:23 | 36.17135 | -149.29899 | 30333 ft | 487 kts | 260° |
| 2026-04-26 05:24 | 36.15197 | -149.37929 | 30336 ft | 487 kts | 260° |
| 2026-04-26 05:24 | 36.13252 | -149.45959 | 30331 ft | 487 kts | 260° |
| 2026-04-26 05:25 | 36.11305 | -149.53972 | 30333 ft | 487 kts | 260° |
| 2026-04-26 05:25 | 36.09348 | -149.62000 | 30325 ft | 487 kts | 260° |
| 2026-04-26 05:26 | 36.07385 | -149.70024 | 30337 ft | 487 kts | 260° |
| 2026-04-26 05:26 | 36.05418 | -149.78041 | 30329 ft | 487 kts | 259° |
| 2026-04-26 05:27 | 36.03455 | -149.86017 | 30330 ft | 487 kts | 259° |
| 2026-04-26 05:27 | 36.01478 | -149.94027 | 30337 ft | 488 kts | 259° |
| 2026-04-26 05:28 | 35.99492 | -150.02046 | 30332 ft | 488 kts | 259° |
| 2026-04-26 05:28 | 35.97487 | -150.10071 | 30334 ft | 488 kts | 259° |
| 2026-04-26 05:29 | 35.95477 | -150.18079 | 30327 ft | 488 kts | 259° |
| 2026-04-26 05:29 | 35.93465 | -150.26080 | 30325 ft | 489 kts | 259° |
| 2026-04-26 05:30 | 35.91457 | -150.34044 | 30325 ft | 489 kts | 259° |
| 2026-04-26 05:30 | 35.89435 | -150.42038 | 30327 ft | 489 kts | 259° |
| 2026-04-26 05:31 | 35.87404 | -150.50043 | 30326 ft | 489 kts | 259° |
| 2026-04-26 05:31 | 35.85372 | -150.58030 | 30324 ft | 489 kts | 259° |
| 2026-04-26 05:32 | 35.83331 | -150.66027 | 30327 ft | 488 kts | 258° |
| 2026-04-26 05:32 | 35.81295 | -150.73974 | 30329 ft | 489 kts | 258° |
| 2026-04-26 05:33 | 35.79245 | -150.81958 | 30326 ft | 489 kts | 258° |
| 2026-04-26 05:33 | 35.77188 | -150.89943 | 30328 ft | 489 kts | 258° |
| 2026-04-26 05:34 | 35.75475 | -150.96573 | 30324 ft | 489 kts | 258° |
| 2026-04-26 05:34 | 35.73515 | -151.04135 | 30325 ft | 489 kts | 258° |
| 2026-04-26 05:35 | 35.71444 | -151.12105 | 30322 ft | 489 kts | 258° |
| 2026-04-26 05:35 | 35.69364 | -151.20087 | 30323 ft | 489 kts | 258° |
| 2026-04-26 05:36 | 35.67278 | -151.28064 | 30327 ft | 489 kts | 258° |
| 2026-04-26 05:36 | 35.65189 | -151.36032 | 30326 ft | 490 kts | 258° |
| 2026-04-26 05:37 | 35.63106 | -151.43949 | 30324 ft | 490 kts | 258° |
| 2026-04-26 05:37 | 35.60993 | -151.51958 | 30324 ft | 490 kts | 258° |
| 2026-04-26 05:38 | 35.58903 | -151.59856 | 30322 ft | 489 kts | 258° |
| 2026-04-26 05:38 | 35.56792 | -151.67809 | 30322 ft | 489 kts | 257° |
| 2026-04-26 05:39 | 35.54675 | -151.75760 | 30326 ft | 489 kts | 257° |
| 2026-04-26 05:39 | 35.52552 | -151.83711 | 30324 ft | 490 kts | 257° |
| 2026-04-26 05:40 | 35.50426 | -151.91652 | 30317 ft | 490 kts | 257° |
| 2026-04-26 05:40 | 35.48290 | -151.99602 | 30315 ft | 491 kts | 257° |
| 2026-04-26 05:41 | 35.46183 | -152.07422 | 30322 ft | 491 kts | 257° |
| 2026-04-26 05:41 | 35.44048 | -152.15326 | 30326 ft | 492 kts | 257° |
| 2026-04-26 05:42 | 35.41890 | -152.23290 | 30321 ft | 492 kts | 257° |
| 2026-04-26 05:42 | 35.39723 | -152.31262 | 30317 ft | 493 kts | 257° |
| 2026-04-26 05:43 | 35.37548 | -152.39238 | 30322 ft | 494 kts | 256° |
| 2026-04-26 05:43 | 35.35368 | -152.47214 | 30320 ft | 494 kts | 256° |
| 2026-04-26 05:44 | 35.33179 | -152.55193 | 30320 ft | 494 kts | 256° |
| 2026-04-26 05:44 | 35.30985 | -152.63174 | 30322 ft | 494 kts | 256° |
| 2026-04-26 05:45 | 35.28800 | -152.71095 | 30318 ft | 494 kts | 256° |
| 2026-04-26 05:45 | 35.26594 | -152.79066 | 30319 ft | 494 kts | 256° |
| 2026-04-26 05:46 | 35.24449 | -152.86801 | 30318 ft | 494 kts | 256° |
| 2026-04-26 05:46 | 35.22207 | -152.94858 | 30320 ft | 494 kts | 256° |
| 2026-04-26 05:47 | 35.20001 | -153.02762 | 30317 ft | 494 kts | 256° |
| 2026-04-26 05:47 | 35.17777 | -153.10712 | 30324 ft | 494 kts | 256° |
| 2026-04-26 05:48 | 35.15581 | -153.18538 | 30317 ft | 494 kts | 256° |
| 2026-04-26 05:48 | 35.13346 | -153.26478 | 30324 ft | 494 kts | 256° |
| 2026-04-26 05:49 | 35.09985 | -153.38379 | 30319 ft | 494 kts | 255° |
| 2026-04-26 05:50 | 35.07737 | -153.46308 | 30320 ft | 494 kts | 255° |
| 2026-04-26 05:50 | 35.05497 | -153.54189 | 30324 ft | 494 kts | 255° |
| 2026-04-26 05:51 | 35.03238 | -153.62112 | 30312 ft | 494 kts | 255° |
| 2026-04-26 05:51 | 35.00972 | -153.70039 | 30306 ft | 495 kts | 255° |
| 2026-04-26 05:52 | 34.98700 | -153.77966 | 30309 ft | 495 kts | 255° |
| 2026-04-26 05:52 | 34.96423 | -153.85885 | 30319 ft | 495 kts | 255° |
| 2026-04-26 05:53 | 34.94140 | -153.93803 | 30316 ft | 495 kts | 255° |
| 2026-04-26 05:53 | 34.91850 | -154.01725 | 30317 ft | 495 kts | 255° |
| 2026-04-26 05:54 | 34.89558 | -154.09632 | 30314 ft | 495 kts | 255° |
| 2026-04-26 05:54 | 34.87270 | -154.17502 | 30317 ft | 496 kts | 255° |
| 2026-04-26 05:55 | 34.84962 | -154.25418 | 30315 ft | 496 kts | 255° |
| 2026-04-26 05:55 | 34.82647 | -154.33335 | 30317 ft | 496 kts | 254° |
| 2026-04-26 05:56 | 34.80326 | -154.41251 | 30314 ft | 496 kts | 254° |
| 2026-04-26 05:56 | 34.78000 | -154.49166 | 30317 ft | 496 kts | 254° |
| 2026-04-26 05:57 | 34.75668 | -154.57074 | 30318 ft | 496 kts | 254° |
| 2026-04-26 05:57 | 34.73349 | -154.64920 | 30316 ft | 496 kts | 254° |
| 2026-04-26 05:58 | 34.71010 | -154.72811 | 30316 ft | 496 kts | 254° |
| 2026-04-26 05:58 | 34.68667 | -154.80696 | 30314 ft | 496 kts | 254° |
| 2026-04-26 05:59 | 34.66372 | -154.88396 | 30313 ft | 495 kts | 254° |
| 2026-04-26 05:59 | 34.64171 | -154.95762 | 30311 ft | 495 kts | 253° |
| 2026-04-26 06:00 | 34.61816 | -155.03621 | 30310 ft | 495 kts | 253° |
| 2026-04-26 06:00 | 34.59474 | -155.11418 | 30312 ft | 495 kts | 253° |
| 2026-04-26 06:01 | 34.57111 | -155.19265 | 30310 ft | 495 kts | 253° |
| 2026-04-26 06:01 | 34.54736 | -155.27127 | 30311 ft | 495 kts | 253° |
| 2026-04-26 06:02 | 34.52362 | -155.34968 | 30310 ft | 495 kts | 253° |
| 2026-04-26 06:02 | 34.49978 | -155.42820 | 30312 ft | 495 kts | 253° |
| 2026-04-26 06:03 | 34.47593 | -155.50654 | 30306 ft | 495 kts | 253° |
| 2026-04-26 06:03 | 34.45219 | -155.58432 | 30306 ft | 495 kts | 253° |
| 2026-04-26 06:04 | 34.42827 | -155.66245 | 30302 ft | 495 kts | 253° |
| 2026-04-26 06:04 | 34.40430 | -155.74055 | 30308 ft | 494 kts | 253° |
| 2026-04-26 06:05 | 34.38028 | -155.81861 | 30311 ft | 494 kts | 253° |
| 2026-04-26 06:05 | 34.35621 | -155.89666 | 30304 ft | 494 kts | 253° |
| 2026-04-26 06:06 | 34.33210 | -155.97460 | 30305 ft | 493 kts | 253° |
| 2026-04-26 06:06 | 34.30818 | -156.05173 | 30302 ft | 493 kts | 253° |
| 2026-04-26 06:07 | 34.28406 | -156.12930 | 30306 ft | 493 kts | 252° |
| 2026-04-26 06:07 | 34.25989 | -156.20683 | 30307 ft | 492 kts | 252° |
| 2026-04-26 06:08 | 34.23566 | -156.28436 | 30303 ft | 492 kts | 252° |
| 2026-04-26 06:08 | 34.21142 | -156.36169 | 30305 ft | 492 kts | 252° |
| 2026-04-26 06:09 | 34.18715 | -156.43895 | 30308 ft | 492 kts | 252° |
| 2026-04-26 06:09 | 34.16281 | -156.51622 | 30305 ft | 491 kts | 252° |
| 2026-04-26 06:10 | 34.13865 | -156.59276 | 30298 ft | 491 kts | 252° |
| 2026-04-26 06:10 | 34.11426 | -156.66979 | 30301 ft | 491 kts | 252° |
| 2026-04-26 06:11 | 34.08985 | -156.74669 | 30302 ft | 491 kts | 252° |
| 2026-04-26 06:11 | 34.06536 | -156.82365 | 30298 ft | 491 kts | 252° |
| 2026-04-26 06:12 | 34.04082 | -156.90058 | 30296 ft | 491 kts | 252° |
| 2026-04-26 06:12 | 34.01643 | -156.97687 | 30297 ft | 491 kts | 252° |
| 2026-04-26 06:13 | 33.99178 | -157.05372 | 30298 ft | 491 kts | 252° |
| 2026-04-26 06:13 | 33.96711 | -157.13050 | 30296 ft | 491 kts | 252° |
| 2026-04-26 06:14 | 33.94236 | -157.20729 | 30294 ft | 491 kts | 251° |
| 2026-04-26 06:14 | 33.91759 | -157.28397 | 30295 ft | 491 kts | 251° |
| 2026-04-26 06:15 | 33.89278 | -157.36058 | 30294 ft | 491 kts | 251° |
| 2026-04-26 06:15 | 33.86808 | -157.43666 | 30296 ft | 491 kts | 251° |
| 2026-04-26 06:16 | 33.84317 | -157.51321 | 30292 ft | 491 kts | 251° |
| 2026-04-26 06:16 | 33.81821 | -157.58973 | 30298 ft | 491 kts | 251° |
| 2026-04-26 06:17 | 33.79319 | -157.66622 | 30296 ft | 492 kts | 251° |
| 2026-04-26 06:17 | 33.76810 | -157.74275 | 30295 ft | 492 kts | 251° |
| 2026-04-26 06:18 | 33.74290 | -157.81940 | 30295 ft | 493 kts | 251° |
| 2026-04-26 06:18 | 33.71765 | -157.89604 | 30291 ft | 493 kts | 251° |
| 2026-04-26 06:19 | 33.69236 | -157.97260 | 30287 ft | 493 kts | 251° |
| 2026-04-26 06:19 | 33.66699 | -158.04923 | 30292 ft | 494 kts | 251° |
| 2026-04-26 06:20 | 33.64157 | -158.12581 | 30285 ft | 494 kts | 251° |
| 2026-04-26 06:20 | 33.61624 | -158.20192 | 30289 ft | 494 kts | 251° |
| 2026-04-26 06:21 | 33.59072 | -158.27844 | 30287 ft | 494 kts | 251° |
| 2026-04-26 06:21 | 33.56511 | -158.35501 | 30292 ft | 495 kts | 251° |
| 2026-04-26 06:22 | 33.53939 | -158.43177 | 30292 ft | 495 kts | 251° |
| 2026-04-26 06:22 | 33.51366 | -158.50834 | 30292 ft | 495 kts | 251° |
| 2026-04-26 06:23 | 33.48802 | -158.58446 | 30290 ft | 495 kts | 251° |
| 2026-04-26 06:23 | 33.46218 | -158.66100 | 30290 ft | 496 kts | 251° |
| 2026-04-26 06:24 | 33.43625 | -158.73763 | 30282 ft | 496 kts | 251° |
| 2026-04-26 06:24 | 33.41464 | -158.80132 | 30283 ft | 496 kts | 251° |
| 2026-04-26 06:25 | 33.38439 | -158.89029 | 30286 ft | 497 kts | 251° |
| 2026-04-26 06:25 | 33.36251 | -158.95448 | 30284 ft | 497 kts | 251° |
| 2026-04-26 06:26 | 33.33634 | -159.03110 | 30282 ft | 497 kts | 250° |
| 2026-04-26 06:26 | 33.31015 | -159.10758 | 30284 ft | 497 kts | 250° |
| 2026-04-26 06:27 | 33.28405 | -159.18364 | 30283 ft | 497 kts | 250° |
| 2026-04-26 06:27 | 33.25776 | -159.26007 | 30279 ft | 498 kts | 250° |
| 2026-04-26 06:28 | 33.23133 | -159.33670 | 30279 ft | 497 kts | 250° |
| 2026-04-26 06:28 | 33.20494 | -159.41304 | 30283 ft | 497 kts | 250° |
| 2026-04-26 06:29 | 33.17845 | -159.48950 | 30284 ft | 497 kts | 250° |
| 2026-04-26 06:29 | 33.15209 | -159.56542 | 30283 ft | 497 kts | 250° |
| 2026-04-26 06:30 | 33.12552 | -159.64174 | 30284 ft | 497 kts | 250° |
| 2026-04-26 06:30 | 33.09890 | -159.71803 | 30285 ft | 497 kts | 250° |
| 2026-04-26 06:31 | 33.07228 | -159.79415 | 30282 ft | 497 kts | 250° |
| 2026-04-26 06:31 | 33.04565 | -159.87014 | 30281 ft | 497 kts | 249° |
| 2026-04-26 06:32 | 33.01909 | -159.94576 | 30280 ft | 496 kts | 249° |
| 2026-04-26 06:32 | 32.99363 | -160.02225 | 30284 ft | 494 kts | 255° |
| 2026-04-26 06:33 | 32.97387 | -160.10054 | 30279 ft | 494 kts | 256° |
| 2026-04-26 06:33 | 32.95446 | -160.17902 | 30279 ft | 494 kts | 256° |
| 2026-04-26 06:34 | 32.93481 | -160.25735 | 30279 ft | 494 kts | 255° |
| 2026-04-26 06:34 | 32.91491 | -160.33563 | 30277 ft | 494 kts | 255° |
| 2026-04-26 06:35 | 32.89490 | -160.41387 | 30276 ft | 494 kts | 255° |
| 2026-04-26 06:35 | 32.87498 | -160.49157 | 30266 ft | 494 kts | 255° |
| 2026-04-26 06:36 | 32.85489 | -160.56976 | 30271 ft | 494 kts | 255° |
| 2026-04-26 06:36 | 32.83474 | -160.64795 | 30273 ft | 494 kts | 255° |
| 2026-04-26 06:37 | 32.81457 | -160.72602 | 30270 ft | 494 kts | 255° |
| 2026-04-26 06:37 | 32.79438 | -160.80396 | 30267 ft | 494 kts | 255° |
| 2026-04-26 06:38 | 32.77408 | -160.88206 | 30271 ft | 494 kts | 255° |
| 2026-04-26 06:38 | 32.75375 | -160.96007 | 30268 ft | 494 kts | 255° |
| 2026-04-26 06:39 | 32.73341 | -161.03791 | 30270 ft | 494 kts | 255° |
| 2026-04-26 06:39 | 32.71309 | -161.11542 | 30273 ft | 494 kts | 254° |
| 2026-04-26 06:40 | 32.69262 | -161.19334 | 30261 ft | 494 kts | 254° |
| 2026-04-26 06:40 | 32.67210 | -161.27119 | 30262 ft | 494 kts | 254° |
| 2026-04-26 06:41 | 32.65154 | -161.34896 | 30275 ft | 494 kts | 254° |
| 2026-04-26 06:41 | 32.63095 | -161.42665 | 30273 ft | 494 kts | 254° |
| 2026-04-26 06:42 | 32.61028 | -161.50444 | 30268 ft | 494 kts | 254° |
| 2026-04-26 06:42 | 32.58959 | -161.58208 | 30268 ft | 494 kts | 254° |
| 2026-04-26 06:43 | 32.56885 | -161.65970 | 30267 ft | 494 kts | 254° |
| 2026-04-26 06:43 | 32.54821 | -161.73670 | 30263 ft | 494 kts | 254° |
| 2026-04-26 06:44 | 32.52736 | -161.81430 | 30265 ft | 493 kts | 254° |
| 2026-04-26 06:44 | 32.50648 | -161.89180 | 30264 ft | 493 kts | 253° |
| 2026-04-26 06:45 | 32.48555 | -161.96923 | 30263 ft | 493 kts | 253° |
| 2026-04-26 06:45 | 32.46460 | -162.04658 | 30264 ft | 493 kts | 253° |
| 2026-04-26 06:46 | 32.44359 | -162.12391 | 30260 ft | 493 kts | 253° |
| 2026-04-26 06:46 | 32.42268 | -162.20069 | 30260 ft | 493 kts | 253° |
| 2026-04-26 06:47 | 32.40158 | -162.27791 | 30259 ft | 493 kts | 253° |
| 2026-04-26 06:47 | 32.38046 | -162.35505 | 30263 ft | 493 kts | 253° |
| 2026-04-26 06:48 | 32.35926 | -162.43224 | 30256 ft | 493 kts | 253° |
| 2026-04-26 06:48 | 32.33802 | -162.50938 | 30259 ft | 493 kts | 253° |
| 2026-04-26 06:49 | 32.31676 | -162.58637 | 30256 ft | 492 kts | 253° |
| 2026-04-26 06:49 | 32.29546 | -162.66332 | 30253 ft | 492 kts | 253° |
| 2026-04-26 06:50 | 32.27412 | -162.74022 | 30257 ft | 492 kts | 253° |
| 2026-04-26 06:50 | 32.25286 | -162.81658 | 30256 ft | 492 kts | 253° |
| 2026-04-26 06:51 | 32.23144 | -162.89335 | 30251 ft | 492 kts | 253° |
| 2026-04-26 06:51 | 32.19925 | -163.00835 | 30252 ft | 492 kts | 252° |
| 2026-04-26 06:52 | 32.17769 | -163.08510 | 30247 ft | 492 kts | 252° |
| 2026-04-26 06:52 | 32.15609 | -163.16182 | 30251 ft | 493 kts | 252° |
| 2026-04-26 06:53 | 32.13440 | -163.23863 | 30249 ft | 493 kts | 252° |
| 2026-04-26 06:53 | 32.11267 | -163.31540 | 30243 ft | 493 kts | 252° |
| 2026-04-26 06:54 | 32.09087 | -163.39218 | 30243 ft | 493 kts | 252° |
| 2026-04-26 06:54 | 32.06906 | -163.46885 | 30248 ft | 493 kts | 252° |
| 2026-04-26 06:55 | 32.04730 | -163.54511 | 30245 ft | 494 kts | 252° |
| 2026-04-26 06:55 | 32.02537 | -163.62178 | 30244 ft | 494 kts | 252° |
| 2026-04-26 06:56 | 32.00336 | -163.69853 | 30247 ft | 494 kts | 251° |
| 2026-04-26 06:56 | 31.98133 | -163.77516 | 30245 ft | 494 kts | 251° |
| 2026-04-26 06:57 | 31.95923 | -163.85184 | 30244 ft | 494 kts | 251° |
| 2026-04-26 06:57 | 31.93711 | -163.92836 | 30242 ft | 493 kts | 251° |
| 2026-04-26 06:58 | 31.91514 | -164.00419 | 30239 ft | 493 kts | 251° |
| 2026-04-26 06:58 | 31.89297 | -164.08051 | 30244 ft | 492 kts | 251° |
| 2026-04-26 06:59 | 31.87079 | -164.15670 | 30244 ft | 492 kts | 251° |
| 2026-04-26 06:59 | 31.84856 | -164.23284 | 30244 ft | 492 kts | 251° |
| 2026-04-26 07:00 | 31.82625 | -164.30905 | 30247 ft | 492 kts | 251° |
| 2026-04-26 07:00 | 31.80390 | -164.38524 | 30245 ft | 493 kts | 251° |
| 2026-04-26 07:01 | 31.78161 | -164.46101 | 30245 ft | 493 kts | 251° |
| 2026-04-26 07:01 | 31.75912 | -164.53729 | 30239 ft | 494 kts | 251° |
| 2026-04-26 07:02 | 31.73658 | -164.61353 | 30246 ft | 494 kts | 251° |
| 2026-04-26 07:02 | 31.71398 | -164.68981 | 30240 ft | 494 kts | 251° |
| 2026-04-26 07:03 | 31.69133 | -164.76602 | 30247 ft | 494 kts | 251° |
| 2026-04-26 07:03 | 31.66865 | -164.84218 | 30251 ft | 494 kts | 251° |
| 2026-04-26 07:04 | 31.64590 | -164.91838 | 30249 ft | 494 kts | 251° |
| 2026-04-26 07:04 | 31.62313 | -164.99444 | 30248 ft | 494 kts | 251° |
| 2026-04-26 07:05 | 31.60028 | -165.07058 | 30247 ft | 494 kts | 250° |
| 2026-04-26 07:05 | 31.57751 | -165.14628 | 30249 ft | 494 kts | 250° |
| 2026-04-26 07:06 | 31.55459 | -165.22231 | 30253 ft | 494 kts | 250° |
| 2026-04-26 07:06 | 31.53164 | -165.29822 | 30249 ft | 494 kts | 250° |
| 2026-04-26 07:07 | 31.50865 | -165.37411 | 30248 ft | 494 kts | 250° |
| 2026-04-26 07:07 | 31.48563 | -165.44988 | 30252 ft | 493 kts | 250° |
| 2026-04-26 07:08 | 31.46255 | -165.52566 | 30248 ft | 493 kts | 250° |
| 2026-04-26 07:08 | 31.43943 | -165.60141 | 30248 ft | 493 kts | 250° |
| 2026-04-26 07:09 | 31.41643 | -165.67660 | 30252 ft | 493 kts | 250° |
| 2026-04-26 07:09 | 31.39322 | -165.75225 | 30255 ft | 493 kts | 250° |
| 2026-04-26 07:11 | 31.33900 | -165.92834 | 30252 ft | 493 kts | 250° |
| 2026-04-26 07:11 | 31.31567 | -166.00380 | 30252 ft | 493 kts | 250° |
| 2026-04-26 07:12 | 31.29229 | -166.07925 | 30253 ft | 493 kts | 249° |
| 2026-04-26 07:12 | 31.26903 | -166.15411 | 30252 ft | 493 kts | 249° |
| 2026-04-26 07:13 | 31.24561 | -166.22934 | 30257 ft | 492 kts | 249° |
| 2026-04-26 07:13 | 31.22217 | -166.30445 | 30255 ft | 492 kts | 249° |
| 2026-04-26 07:14 | 31.19863 | -166.37967 | 30251 ft | 492 kts | 249° |
| 2026-04-26 07:14 | 31.17506 | -166.45483 | 30254 ft | 492 kts | 249° |
| 2026-04-26 07:15 | 31.15163 | -166.52936 | 30254 ft | 492 kts | 249° |
| 2026-04-26 07:15 | 31.12798 | -166.60445 | 30255 ft | 493 kts | 249° |
| 2026-04-26 07:16 | 31.10428 | -166.67949 | 30253 ft | 493 kts | 249° |
| 2026-04-26 07:16 | 31.08054 | -166.75451 | 30255 ft | 493 kts | 249° |
| 2026-04-26 07:17 | 31.05672 | -166.82958 | 30256 ft | 493 kts | 249° |
| 2026-04-26 07:17 | 31.03284 | -166.90466 | 30256 ft | 494 kts | 249° |
| 2026-04-26 07:18 | 31.00890 | -166.97978 | 30252 ft | 494 kts | 249° |
| 2026-04-26 07:18 | 30.98494 | -167.05479 | 30252 ft | 494 kts | 249° |
| 2026-04-26 07:19 | 30.96088 | -167.12991 | 30259 ft | 494 kts | 249° |
| 2026-04-26 07:19 | 30.93695 | -167.20446 | 30256 ft | 494 kts | 249° |
| 2026-04-26 07:20 | 30.91279 | -167.27956 | 30254 ft | 495 kts | 249° |
| 2026-04-26 07:20 | 30.88862 | -167.35452 | 30259 ft | 495 kts | 248° |
| 2026-04-26 07:21 | 30.86437 | -167.42955 | 30255 ft | 495 kts | 248° |
| 2026-04-26 07:21 | 30.84011 | -167.50447 | 30253 ft | 495 kts | 248° |
| 2026-04-26 07:22 | 30.81575 | -167.57949 | 30252 ft | 495 kts | 248° |
| 2026-04-26 07:22 | 30.79152 | -167.65394 | 30253 ft | 495 kts | 248° |
| 2026-04-26 07:23 | 30.76706 | -167.72894 | 30257 ft | 496 kts | 248° |
| 2026-04-26 07:23 | 30.74258 | -167.80386 | 30254 ft | 496 kts | 248° |
| 2026-04-26 07:24 | 30.71800 | -167.87886 | 30255 ft | 497 kts | 248° |
| 2026-04-26 07:24 | 30.69338 | -167.95385 | 30259 ft | 497 kts | 248° |
| 2026-04-26 07:25 | 30.66867 | -168.02892 | 30257 ft | 498 kts | 248° |
| 2026-04-26 07:25 | 30.64391 | -168.10399 | 30256 ft | 498 kts | 248° |
| 2026-04-26 07:26 | 30.61910 | -168.17905 | 30256 ft | 498 kts | 248° |
| 2026-04-26 07:26 | 30.59424 | -168.25409 | 30255 ft | 498 kts | 248° |
| 2026-04-26 07:27 | 30.56932 | -168.32914 | 30254 ft | 498 kts | 248° |
| 2026-04-26 07:27 | 30.54456 | -168.40352 | 30258 ft | 498 kts | 248° |
| 2026-04-26 07:28 | 30.51959 | -168.47839 | 30255 ft | 498 kts | 248° |
| 2026-04-26 07:28 | 30.51536 | -168.49103 | 30255 ft | 498 kts | 248° |
| 2026-04-26 07:29 | 30.51165 | -168.50214 | 30255 ft | 497 kts | 248° |
| 2026-04-26 07:30 | 30.49338 | -168.55678 | 30255 ft | 497 kts | 248° |
| 2026-04-26 07:30 | 30.46848 | -168.63109 | 30257 ft | 497 kts | 248° |
| 2026-04-26 07:31 | 30.44339 | -168.70581 | 30257 ft | 497 kts | 248° |
| 2026-04-26 07:31 | 30.41827 | -168.78043 | 30260 ft | 497 kts | 248° |
| 2026-04-26 07:32 | 30.39309 | -168.85509 | 30256 ft | 497 kts | 248° |
| 2026-04-26 07:32 | 30.36793 | -168.92952 | 30255 ft | 496 kts | 248° |
| 2026-04-26 07:33 | 30.34272 | -169.00395 | 30259 ft | 496 kts | 248° |
| 2026-04-26 07:33 | 30.31750 | -169.07823 | 30259 ft | 495 kts | 248° |
| 2026-04-26 07:34 | 30.29224 | -169.15245 | 30256 ft | 495 kts | 248° |
| 2026-04-26 07:34 | 30.26696 | -169.22660 | 30258 ft | 495 kts | 248° |
| 2026-04-26 07:35 | 30.24165 | -169.30066 | 30251 ft | 495 kts | 248° |
| 2026-04-26 07:35 | 30.21631 | -169.37465 | 30255 ft | 494 kts | 248° |
| 2026-04-26 07:36 | 30.19111 | -169.44807 | 30250 ft | 494 kts | 248° |
| 2026-04-26 07:36 | 30.16574 | -169.52184 | 30254 ft | 494 kts | 248° |
| 2026-04-26 07:37 | 30.14037 | -169.59545 | 30250 ft | 493 kts | 248° |
| 2026-04-26 07:37 | 30.11495 | -169.66905 | 30245 ft | 492 kts | 248° |
| 2026-04-26 07:38 | 30.08951 | -169.74254 | 30251 ft | 492 kts | 248° |
| 2026-04-26 07:38 | 30.06407 | -169.81590 | 30254 ft | 491 kts | 248° |
| 2026-04-26 07:39 | 30.03879 | -169.88863 | 30246 ft | 491 kts | 248° |
| 2026-04-26 07:39 | 30.01329 | -169.96187 | 30244 ft | 490 kts | 248° |
| 2026-04-26 07:40 | 29.99002 | -170.03581 | 30257 ft | 490 kts | 253° |
| 2026-04-26 07:40 | 29.97091 | -170.11133 | 30254 ft | 490 kts | 253° |
| 2026-04-26 07:41 | 29.95207 | -170.18644 | 30253 ft | 491 kts | 253° |
| 2026-04-26 07:41 | 29.93288 | -170.26184 | 30251 ft | 491 kts | 253° |
| 2026-04-26 07:42 | 29.91343 | -170.33736 | 30251 ft | 490 kts | 253° |
| 2026-04-26 07:42 | 29.89397 | -170.41263 | 30254 ft | 490 kts | 253° |
| 2026-04-26 07:43 | 29.87447 | -170.48784 | 30253 ft | 489 kts | 253° |
| 2026-04-26 07:43 | 29.85494 | -170.56301 | 30253 ft | 489 kts | 253° |
| 2026-04-26 07:44 | 29.83539 | -170.63808 | 30243 ft | 489 kts | 253° |
| 2026-04-26 07:44 | 29.81581 | -170.71309 | 30239 ft | 489 kts | 253° |
| 2026-04-26 07:45 | 29.79615 | -170.78820 | 30253 ft | 490 kts | 253° |
| 2026-04-26 07:45 | 29.77646 | -170.86326 | 30249 ft | 490 kts | 253° |
| 2026-04-26 07:46 | 29.75681 | -170.93794 | 30246 ft | 490 kts | 253° |
| 2026-04-26 07:46 | 29.73700 | -171.01308 | 30245 ft | 491 kts | 253° |
| 2026-04-26 07:47 | 29.71713 | -171.08822 | 30247 ft | 491 kts | 253° |
| 2026-04-26 07:47 | 29.69720 | -171.16342 | 30247 ft | 491 kts | 253° |
| 2026-04-26 07:48 | 29.67724 | -171.23854 | 30246 ft | 491 kts | 253° |
| 2026-04-26 07:48 | 29.65720 | -171.31374 | 30246 ft | 491 kts | 253° |
| 2026-04-26 07:49 | 29.63715 | -171.38885 | 30245 ft | 491 kts | 253° |
| 2026-04-26 07:49 | 29.61706 | -171.46385 | 30250 ft | 491 kts | 253° |
| 2026-04-26 07:50 | 29.58687 | -171.57627 | 30243 ft | 491 kts | 253° |
| 2026-04-26 07:50 | 29.56669 | -171.65115 | 30245 ft | 490 kts | 253° |
| 2026-04-26 07:51 | 29.54660 | -171.72555 | 30246 ft | 490 kts | 253° |
| 2026-04-26 07:51 | 29.52631 | -171.80048 | 30244 ft | 490 kts | 253° |
| 2026-04-26 07:52 | 29.50603 | -171.87521 | 30245 ft | 490 kts | 253° |
| 2026-04-26 07:52 | 29.48583 | -171.94945 | 30243 ft | 490 kts | 253° |
| 2026-04-26 07:53 | 29.46549 | -172.02403 | 30239 ft | 490 kts | 253° |
| 2026-04-26 07:53 | 29.44507 | -172.09870 | 30241 ft | 490 kts | 253° |
| 2026-04-26 07:54 | 29.42460 | -172.17337 | 30240 ft | 490 kts | 253° |
| 2026-04-26 07:54 | 29.40410 | -172.24801 | 30243 ft | 490 kts | 253° |
| 2026-04-26 07:55 | 29.38349 | -172.32284 | 30237 ft | 490 kts | 253° |
| 2026-04-26 07:55 | 29.36302 | -172.39698 | 30238 ft | 490 kts | 253° |
| 2026-04-26 07:56 | 29.34235 | -172.47166 | 30239 ft | 490 kts | 253° |
| 2026-04-26 07:56 | 29.32167 | -172.54621 | 30242 ft | 491 kts | 253° |
| 2026-04-26 07:57 | 29.30094 | -172.62072 | 30234 ft | 491 kts | 253° |
| 2026-04-26 07:57 | 29.28019 | -172.69518 | 30238 ft | 491 kts | 253° |
| 2026-04-26 07:58 | 29.26290 | -172.75708 | 30237 ft | 491 kts | 253° |
| 2026-04-26 07:58 | 29.23867 | -172.84360 | 30237 ft | 491 kts | 253° |
| 2026-04-26 07:59 | 29.22128 | -172.90553 | 30236 ft | 491 kts | 253° |
| 2026-04-26 07:59 | 29.20032 | -172.98003 | 30237 ft | 491 kts | 253° |
| 2026-04-26 08:00 | 29.17937 | -173.05435 | 30236 ft | 491 kts | 253° |
| 2026-04-26 08:00 | 29.15830 | -173.12887 | 30234 ft | 491 kts | 253° |
| 2026-04-26 08:01 | 29.13726 | -173.20313 | 30232 ft | 491 kts | 253° |
| 2026-04-26 08:01 | 29.11616 | -173.27743 | 30238 ft | 491 kts | 253° |
| 2026-04-26 08:02 | 29.09503 | -173.35169 | 30236 ft | 491 kts | 253° |
| 2026-04-26 08:02 | 29.07386 | -173.42588 | 30237 ft | 491 kts | 253° |
| 2026-04-26 08:03 | 29.05264 | -173.50007 | 30236 ft | 491 kts | 253° |
| 2026-04-26 08:03 | 29.03152 | -173.57375 | 30235 ft | 490 kts | 253° |
| 2026-04-26 08:04 | 29.01023 | -173.64782 | 30234 ft | 490 kts | 253° |
| 2026-04-26 08:04 | 28.98891 | -173.72187 | 30239 ft | 490 kts | 252° |
| 2026-04-26 08:05 | 28.96756 | -173.79581 | 30235 ft | 490 kts | 252° |
| 2026-04-26 08:05 | 28.94615 | -173.86981 | 30231 ft | 490 kts | 252° |
| 2026-04-26 08:06 | 28.92472 | -173.94372 | 30237 ft | 490 kts | 252° |
| 2026-04-26 08:06 | 28.90324 | -174.01761 | 30236 ft | 490 kts | 252° |
| 2026-04-26 08:07 | 28.88172 | -174.09148 | 30236 ft | 490 kts | 252° |
| 2026-04-26 08:07 | 28.86020 | -174.16518 | 30234 ft | 490 kts | 252° |
| 2026-04-26 08:08 | 28.83864 | -174.23885 | 30231 ft | 489 kts | 252° |
| 2026-04-26 08:08 | 28.81704 | -174.31249 | 30231 ft | 489 kts | 252° |
| 2026-04-26 08:09 | 28.79552 | -174.38569 | 30233 ft | 489 kts | 252° |
| 2026-04-26 08:09 | 28.77384 | -174.45927 | 30230 ft | 489 kts | 252° |
| 2026-04-26 08:10 | 28.75213 | -174.53281 | 30231 ft | 489 kts | 252° |
| 2026-04-26 08:10 | 28.73036 | -174.60637 | 30231 ft | 490 kts | 252° |
| 2026-04-26 08:11 | 28.70854 | -174.67990 | 30232 ft | 490 kts | 252° |
| 2026-04-26 08:11 | 28.68672 | -174.75332 | 30229 ft | 490 kts | 252° |
| 2026-04-26 08:12 | 28.66495 | -174.82636 | 30227 ft | 490 kts | 252° |
| 2026-04-26 08:12 | 28.64302 | -174.89980 | 30227 ft | 489 kts | 252° |
| 2026-04-26 08:13 | 28.62110 | -174.97306 | 30230 ft | 489 kts | 252° |
| 2026-04-26 08:13 | 28.59911 | -175.04636 | 30225 ft | 489 kts | 252° |
| 2026-04-26 08:14 | 28.57706 | -175.11969 | 30231 ft | 489 kts | 252° |
| 2026-04-26 08:14 | 28.55518 | -175.19233 | 30226 ft | 489 kts | 252° |
| 2026-04-26 08:15 | 28.53304 | -175.26566 | 30230 ft | 489 kts | 252° |
| 2026-04-26 08:15 | 28.51089 | -175.33884 | 30230 ft | 489 kts | 252° |
| 2026-04-26 08:16 | 28.48870 | -175.41204 | 30219 ft | 489 kts | 252° |
| 2026-04-26 08:16 | 28.46646 | -175.48520 | 30228 ft | 489 kts | 252° |
| 2026-04-26 08:17 | 28.44420 | -175.55828 | 30231 ft | 489 kts | 252° |
| 2026-04-26 08:17 | 28.42188 | -175.63141 | 30231 ft | 490 kts | 252° |
| 2026-04-26 08:18 | 28.39965 | -175.70406 | 30231 ft | 490 kts | 252° |
| 2026-04-26 08:18 | 28.37726 | -175.77711 | 30229 ft | 490 kts | 252° |
| 2026-04-26 08:19 | 28.35482 | -175.85014 | 30226 ft | 490 kts | 252° |
| 2026-04-26 08:19 | 28.33234 | -175.92314 | 30226 ft | 490 kts | 251° |
| 2026-04-26 08:20 | 28.30982 | -175.99613 | 30224 ft | 490 kts | 251° |
| 2026-04-26 08:20 | 28.28727 | -176.06904 | 30227 ft | 489 kts | 251° |
| 2026-04-26 08:21 | 28.26469 | -176.14190 | 30229 ft | 489 kts | 251° |
| 2026-04-26 08:21 | 28.24221 | -176.21431 | 30227 ft | 489 kts | 251° |
| 2026-04-26 08:22 | 28.21956 | -176.28710 | 30222 ft | 489 kts | 251° |
| 2026-04-26 08:22 | 28.19689 | -176.35979 | 30225 ft | 489 kts | 251° |
| 2026-04-26 08:23 | 28.17416 | -176.43252 | 30230 ft | 489 kts | 251° |
| 2026-04-26 08:23 | 28.15138 | -176.50523 | 30228 ft | 489 kts | 251° |
| 2026-04-26 08:24 | 28.12858 | -176.57789 | 30223 ft | 489 kts | 251° |
| 2026-04-26 08:24 | 28.10588 | -176.65006 | 30227 ft | 490 kts | 251° |
| 2026-04-26 08:25 | 28.08299 | -176.72268 | 30228 ft | 490 kts | 251° |
| 2026-04-26 08:25 | 28.06004 | -176.79534 | 30226 ft | 490 kts | 251° |
| 2026-04-26 08:26 | 28.03706 | -176.86796 | 30217 ft | 490 kts | 251° |
| 2026-04-26 08:26 | 28.01408 | -176.94044 | 30221 ft | 490 kts | 251° |
| 2026-04-26 08:27 | 27.99100 | -177.01303 | 30227 ft | 490 kts | 251° |
| 2026-04-26 08:27 | 27.96789 | -177.08560 | 30226 ft | 490 kts | 251° |
| 2026-04-26 08:28 | 27.94491 | -177.15763 | 30228 ft | 490 kts | 251° |
| 2026-04-26 08:28 | 27.92175 | -177.23004 | 30228 ft | 490 kts | 251° |
| 2026-04-26 08:29 | 27.89853 | -177.30250 | 30229 ft | 490 kts | 251° |
| 2026-04-26 08:29 | 27.87531 | -177.37481 | 30225 ft | 489 kts | 251° |
| 2026-04-26 08:30 | 27.85202 | -177.44719 | 30222 ft | 490 kts | 251° |
| 2026-04-26 08:30 | 27.82869 | -177.51953 | 30222 ft | 490 kts | 251° |
| 2026-04-26 08:31 | 27.80532 | -177.59187 | 30227 ft | 490 kts | 251° |
| 2026-04-26 08:31 | 27.78192 | -177.66415 | 30221 ft | 490 kts | 251° |
| 2026-04-26 08:32 | 27.75859 | -177.73606 | 30218 ft | 490 kts | 251° |
| 2026-04-26 08:32 | 27.73511 | -177.80829 | 30220 ft | 490 kts | 251° |
| 2026-04-26 08:33 | 27.71160 | -177.88048 | 30217 ft | 490 kts | 251° |
| 2026-04-26 08:33 | 27.68806 | -177.95258 | 30216 ft | 490 kts | 251° |
| 2026-04-26 08:34 | 27.66449 | -178.02467 | 30220 ft | 489 kts | 251° |
| 2026-04-26 08:34 | 27.64089 | -178.09669 | 30222 ft | 489 kts | 251° |
| 2026-04-26 08:35 | 27.61723 | -178.16874 | 30223 ft | 489 kts | 251° |
| 2026-04-26 08:35 | 27.59354 | -178.24075 | 30221 ft | 489 kts | 251° |
| 2026-04-26 08:36 | 27.56997 | -178.31223 | 30222 ft | 489 kts | 251° |
| 2026-04-26 08:36 | 27.54622 | -178.38414 | 30221 ft | 490 kts | 251° |
| 2026-04-26 08:37 | 27.52240 | -178.45609 | 30221 ft | 490 kts | 250° |
| 2026-04-26 08:37 | 27.49852 | -178.52811 | 30220 ft | 490 kts | 250° |
| 2026-04-26 08:38 | 27.47461 | -178.60005 | 30218 ft | 490 kts | 250° |
| 2026-04-26 08:38 | 27.45064 | -178.67205 | 30220 ft | 491 kts | 250° |
| 2026-04-26 08:39 | 27.42664 | -178.74398 | 30220 ft | 491 kts | 250° |
| 2026-04-26 08:39 | 27.40256 | -178.81600 | 30218 ft | 491 kts | 250° |
| 2026-04-26 08:40 | 27.37850 | -178.88785 | 30217 ft | 491 kts | 250° |
| 2026-04-26 08:40 | 27.35438 | -178.95971 | 30221 ft | 491 kts | 250° |
| 2026-04-26 08:41 | 27.33037 | -179.03111 | 30220 ft | 491 kts | 250° |
| 2026-04-26 08:41 | 27.30620 | -179.10286 | 30219 ft | 491 kts | 250° |
| 2026-04-26 08:42 | 27.28198 | -179.17462 | 30212 ft | 491 kts | 250° |
| 2026-04-26 08:42 | 27.25772 | -179.24633 | 30220 ft | 491 kts | 250° |
| 2026-04-26 08:43 | 27.23344 | -179.31799 | 30219 ft | 491 kts | 250° |
| 2026-04-26 08:43 | 27.20910 | -179.38968 | 30218 ft | 491 kts | 250° |
| 2026-04-26 08:44 | 27.18471 | -179.46136 | 30216 ft | 491 kts | 250° |
| 2026-04-26 08:44 | 27.16438 | -179.52103 | 30220 ft | 491 kts | 250° |
| 2026-04-26 08:45 | 27.13992 | -179.59268 | 30216 ft | 491 kts | 250° |
| 2026-04-26 08:45 | 27.11542 | -179.66431 | 30211 ft | 492 kts | 250° |
| 2026-04-26 08:46 | 27.09086 | -179.73596 | 30214 ft | 492 kts | 250° |
| 2026-04-26 08:46 | 27.06625 | -179.80764 | 30214 ft | 492 kts | 250° |
| 2026-04-26 08:47 | 27.04163 | -179.87924 | 30214 ft | 492 kts | 250° |
| 2026-04-26 08:47 | 27.01696 | -179.95086 | 30215 ft | 492 kts | 250° |
| 2026-04-26 08:48 | 26.99344 | 179.97717 | 30211 ft | 491 kts | 255° |
| 2026-04-26 08:48 | 26.97452 | 179.90416 | 30207 ft | 491 kts | 255° |
| 2026-04-26 08:49 | 26.95581 | 179.83055 | 30230 ft | 491 kts | 255° |
| 2026-04-26 08:49 | 26.93689 | 179.75704 | 30206 ft | 491 kts | 255° |
| 2026-04-26 08:50 | 26.91775 | 179.68353 | 30204 ft | 491 kts | 255° |
| 2026-04-26 08:50 | 26.89856 | 179.61020 | 30206 ft | 491 kts | 255° |
| 2026-04-26 08:51 | 26.86968 | 179.50013 | 30202 ft | 491 kts | 255° |
| 2026-04-26 08:52 | 26.85038 | 179.42676 | 30210 ft | 490 kts | 255° |
| 2026-04-26 08:52 | 26.83107 | 179.35352 | 30212 ft | 490 kts | 255° |
| 2026-04-26 08:53 | 26.81183 | 179.28068 | 30222 ft | 490 kts | 255° |
| 2026-04-26 08:53 | 26.79245 | 179.20750 | 30198 ft | 491 kts | 255° |
| 2026-04-26 08:54 | 26.77304 | 179.13439 | 30213 ft | 491 kts | 255° |
| 2026-04-26 08:54 | 26.75357 | 179.06117 | 30211 ft | 491 kts | 255° |
| 2026-04-26 08:55 | 26.73406 | 178.98801 | 30209 ft | 491 kts | 255° |
| 2026-04-26 08:55 | 26.71449 | 178.91478 | 30205 ft | 490 kts | 255° |
| 2026-04-26 08:56 | 26.69493 | 178.84174 | 30206 ft | 490 kts | 255° |
| 2026-04-26 08:56 | 26.67544 | 178.76912 | 30201 ft | 490 kts | 255° |
| 2026-04-26 08:57 | 26.65581 | 178.69617 | 30207 ft | 490 kts | 255° |
| 2026-04-26 08:57 | 26.63613 | 178.62318 | 30210 ft | 490 kts | 255° |
| 2026-04-26 08:58 | 26.61644 | 178.55030 | 30209 ft | 490 kts | 255° |
| 2026-04-26 08:58 | 26.59666 | 178.47729 | 30210 ft | 490 kts | 255° |
| 2026-04-26 08:59 | 26.57701 | 178.40490 | 30209 ft | 489 kts | 255° |
| 2026-04-26 08:59 | 26.55723 | 178.33219 | 30211 ft | 489 kts | 255° |
| 2026-04-26 09:00 | 26.53739 | 178.25940 | 30200 ft | 490 kts | 254° |
| 2026-04-26 09:00 | 26.51751 | 178.18666 | 30207 ft | 490 kts | 255° |
| 2026-04-26 09:01 | 26.49759 | 178.11390 | 30208 ft | 490 kts | 254° |
| 2026-04-26 09:01 | 26.47761 | 178.04112 | 30209 ft | 490 kts | 254° |
| 2026-04-26 09:02 | 26.45771 | 177.96876 | 30207 ft | 490 kts | 254° |
| 2026-04-26 09:02 | 26.43766 | 177.89604 | 30206 ft | 490 kts | 254° |
| 2026-04-26 09:03 | 26.41758 | 177.82336 | 30208 ft | 490 kts | 254° |
| 2026-04-26 09:03 | 26.39745 | 177.75062 | 30201 ft | 490 kts | 254° |
| 2026-04-26 09:04 | 26.37728 | 177.67796 | 30196 ft | 490 kts | 254° |
| 2026-04-26 09:04 | 26.35710 | 177.60536 | 30207 ft | 490 kts | 254° |
| 2026-04-26 09:05 | 26.33689 | 177.53286 | 30210 ft | 490 kts | 254° |
| 2026-04-26 09:05 | 26.31664 | 177.46032 | 30203 ft | 490 kts | 254° |
| 2026-04-26 09:06 | 26.29638 | 177.38794 | 30205 ft | 489 kts | 254° |
| 2026-04-26 09:06 | 26.27618 | 177.31591 | 30201 ft | 489 kts | 254° |
| 2026-04-26 09:07 | 26.25585 | 177.24357 | 30208 ft | 489 kts | 254° |
| 2026-04-26 09:07 | 26.23550 | 177.17132 | 30201 ft | 489 kts | 254° |
| 2026-04-26 09:08 | 26.21508 | 177.09899 | 30201 ft | 489 kts | 254° |
| 2026-04-26 09:08 | 26.19465 | 177.02676 | 30201 ft | 489 kts | 254° |
| 2026-04-26 09:09 | 26.17420 | 176.95461 | 30202 ft | 489 kts | 254° |
| 2026-04-26 09:09 | 26.15367 | 176.88232 | 30202 ft | 489 kts | 254° |
| 2026-04-26 09:10 | 26.13308 | 176.81003 | 30199 ft | 489 kts | 254° |
| 2026-04-26 09:10 | 26.11259 | 176.73819 | 30198 ft | 489 kts | 254° |
| 2026-04-26 09:11 | 26.09198 | 176.66608 | 30202 ft | 489 kts | 254° |
| 2026-04-26 09:11 | 26.07132 | 176.59396 | 30199 ft | 489 kts | 254° |
| 2026-04-26 09:12 | 26.05060 | 176.52178 | 30201 ft | 489 kts | 254° |
| 2026-04-26 09:12 | 26.02988 | 176.44973 | 30200 ft | 489 kts | 254° |
| 2026-04-26 09:13 | 26.00913 | 176.37774 | 30201 ft | 489 kts | 254° |
| 2026-04-26 09:13 | 25.98834 | 176.30577 | 30198 ft | 489 kts | 254° |
| 2026-04-26 09:14 | 25.96749 | 176.23374 | 30198 ft | 489 kts | 254° |
| 2026-04-26 09:14 | 25.94679 | 176.16235 | 30195 ft | 489 kts | 254° |
| 2026-04-26 09:15 | 25.92589 | 176.09046 | 30194 ft | 489 kts | 254° |
| 2026-04-26 09:15 | 25.90498 | 176.01864 | 30195 ft | 489 kts | 254° |
| 2026-04-26 09:16 | 25.88402 | 175.94681 | 30197 ft | 489 kts | 254° |
| 2026-04-26 09:16 | 25.86303 | 175.87502 | 30191 ft | 489 kts | 254° |
| 2026-04-26 09:17 | 25.84197 | 175.80316 | 30193 ft | 489 kts | 253° |
| 2026-04-26 09:17 | 25.82089 | 175.73137 | 30192 ft | 489 kts | 253° |
| 2026-04-26 09:18 | 25.79980 | 175.65966 | 30194 ft | 489 kts | 253° |
| 2026-04-26 09:18 | 25.77865 | 175.58795 | 30193 ft | 489 kts | 253° |
| 2026-04-26 09:19 | 25.75747 | 175.51624 | 30189 ft | 489 kts | 253° |
| 2026-04-26 09:19 | 25.73623 | 175.44447 | 30192 ft | 489 kts | 253° |
| 2026-04-26 09:20 | 25.71512 | 175.37330 | 30192 ft | 489 kts | 253° |
| 2026-04-26 09:20 | 25.69384 | 175.30168 | 30190 ft | 489 kts | 253° |
| 2026-04-26 09:21 | 25.67250 | 175.23002 | 30188 ft | 489 kts | 253° |
| 2026-04-26 09:21 | 25.65114 | 175.15841 | 30191 ft | 489 kts | 253° |
| 2026-04-26 09:22 | 25.62974 | 175.08686 | 30191 ft | 489 kts | 253° |
| 2026-04-26 09:22 | 25.60846 | 175.01580 | 30191 ft | 489 kts | 253° |
| 2026-04-26 09:23 | 25.58698 | 174.94425 | 30191 ft | 488 kts | 253° |
| 2026-04-26 09:23 | 25.56553 | 174.87292 | 30191 ft | 488 kts | 253° |
| 2026-04-26 09:24 | 25.54401 | 174.80150 | 30188 ft | 489 kts | 253° |
| 2026-04-26 09:24 | 25.52244 | 174.73005 | 30195 ft | 488 kts | 253° |
| 2026-04-26 09:25 | 25.50086 | 174.65873 | 30191 ft | 489 kts | 253° |
| 2026-04-26 09:25 | 25.47925 | 174.58744 | 30190 ft | 489 kts | 253° |
| 2026-04-26 09:26 | 25.45773 | 174.51658 | 30190 ft | 489 kts | 253° |
| 2026-04-26 09:26 | 25.43603 | 174.44526 | 30190 ft | 489 kts | 253° |
| 2026-04-26 09:27 | 25.41424 | 174.37378 | 30190 ft | 489 kts | 253° |
| 2026-04-26 09:27 | 25.39245 | 174.30245 | 30189 ft | 489 kts | 253° |
| 2026-04-26 09:28 | 25.37062 | 174.23111 | 30193 ft | 490 kts | 253° |
| 2026-04-26 09:28 | 25.34875 | 174.15981 | 30187 ft | 490 kts | 253° |
| 2026-04-26 09:29 | 25.32695 | 174.08885 | 30188 ft | 490 kts | 253° |
| 2026-04-26 09:29 | 25.30497 | 174.01747 | 30189 ft | 490 kts | 253° |
| 2026-04-26 09:30 | 25.28301 | 173.94626 | 30186 ft | 490 kts | 253° |
| 2026-04-26 09:30 | 25.26467 | 173.88689 | 30193 ft | 490 kts | 253° |
| 2026-04-26 09:31 | 25.24263 | 173.81572 | 30191 ft | 490 kts | 253° |
| 2026-04-26 09:31 | 25.22057 | 173.74456 | 30191 ft | 489 kts | 253° |
| 2026-04-26 09:32 | 25.19846 | 173.67339 | 30189 ft | 489 kts | 253° |
| 2026-04-26 09:32 | 25.17647 | 173.60276 | 30184 ft | 489 kts | 253° |
| 2026-04-26 09:33 | 25.15432 | 173.53174 | 30188 ft | 489 kts | 253° |
| 2026-04-26 09:33 | 25.13215 | 173.46079 | 30186 ft | 489 kts | 253° |
| 2026-04-26 09:34 | 25.10992 | 173.38977 | 30189 ft | 489 kts | 253° |
| 2026-04-26 09:34 | 25.08781 | 173.31928 | 30190 ft | 489 kts | 253° |
| 2026-04-26 09:35 | 25.06537 | 173.24787 | 30185 ft | 489 kts | 253° |
| 2026-04-26 09:35 | 25.04320 | 173.17747 | 30190 ft | 489 kts | 253° |
| 2026-04-26 09:36 | 25.02086 | 173.10663 | 30188 ft | 489 kts | 253° |
| 2026-04-26 09:36 | 24.99846 | 173.03575 | 30182 ft | 489 kts | 253° |
| 2026-04-26 09:37 | 24.97602 | 172.96488 | 30196 ft | 489 kts | 253° |
| 2026-04-26 09:37 | 24.95354 | 172.89401 | 30178 ft | 489 kts | 253° |
| 2026-04-26 09:38 | 24.93104 | 172.82319 | 30175 ft | 490 kts | 252° |
| 2026-04-26 09:38 | 24.90863 | 172.75282 | 30173 ft | 490 kts | 252° |
| 2026-04-26 09:39 | 24.88605 | 172.68201 | 30192 ft | 490 kts | 252° |
| 2026-04-26 09:39 | 24.86329 | 172.61078 | 30191 ft | 490 kts | 252° |
| 2026-04-26 09:40 | 24.84078 | 172.54047 | 30173 ft | 490 kts | 252° |
| 2026-04-26 09:40 | 24.81811 | 172.46978 | 30173 ft | 490 kts | 252° |
| 2026-04-26 09:41 | 24.79537 | 172.39899 | 30171 ft | 490 kts | 252° |
| 2026-04-26 09:41 | 24.77260 | 172.32826 | 30191 ft | 490 kts | 252° |
| 2026-04-26 09:42 | 24.74980 | 172.25756 | 30188 ft | 490 kts | 252° |
| 2026-04-26 09:42 | 24.72695 | 172.18685 | 30188 ft | 490 kts | 252° |
| 2026-04-26 09:43 | 24.70423 | 172.11663 | 30182 ft | 490 kts | 252° |
| 2026-04-26 09:43 | 24.68134 | 172.04606 | 30184 ft | 490 kts | 252° |
| 2026-04-26 09:44 | 24.65840 | 171.97541 | 30183 ft | 490 kts | 252° |
| 2026-04-26 09:44 | 24.63543 | 171.90481 | 30184 ft | 491 kts | 252° |
| 2026-04-26 09:45 | 24.61240 | 171.83419 | 30184 ft | 491 kts | 252° |
| 2026-04-26 09:45 | 24.58932 | 171.76353 | 30184 ft | 491 kts | 252° |
| 2026-04-26 09:46 | 24.56621 | 171.69289 | 30184 ft | 491 kts | 252° |
| 2026-04-26 09:46 | 24.54323 | 171.62276 | 30183 ft | 491 kts | 252° |
| 2026-04-26 09:47 | 24.52005 | 171.55216 | 30181 ft | 491 kts | 252° |
| 2026-04-26 09:47 | 24.49685 | 171.48163 | 30181 ft | 491 kts | 252° |
| 2026-04-26 09:48 | 24.47356 | 171.41095 | 30179 ft | 491 kts | 252° |
| 2026-04-26 09:48 | 24.45027 | 171.34038 | 30179 ft | 491 kts | 252° |
| 2026-04-26 09:49 | 24.42694 | 171.26985 | 30180 ft | 492 kts | 252° |
| 2026-04-26 09:49 | 24.40372 | 171.19975 | 30181 ft | 492 kts | 252° |
| 2026-04-26 09:50 | 24.38029 | 171.12916 | 30181 ft | 492 kts | 252° |
| 2026-04-26 09:50 | 24.35683 | 171.05859 | 30182 ft | 492 kts | 252° |
| 2026-04-26 09:51 | 24.33333 | 170.98803 | 30182 ft | 492 kts | 252° |
| 2026-04-26 09:51 | 24.30981 | 170.91752 | 30178 ft | 492 kts | 252° |
| 2026-04-26 09:52 | 24.28625 | 170.84701 | 30180 ft | 492 kts | 252° |
| 2026-04-26 09:52 | 24.25098 | 170.74168 | 30179 ft | 493 kts | 252° |
| 2026-04-26 09:53 | 24.22734 | 170.67127 | 30181 ft | 493 kts | 252° |
| 2026-04-26 09:53 | 24.20365 | 170.60081 | 30179 ft | 493 kts | 252° |
| 2026-04-26 09:54 | 24.17992 | 170.53033 | 30181 ft | 493 kts | 252° |
| 2026-04-26 09:54 | 24.15616 | 170.45991 | 30179 ft | 493 kts | 251° |
| 2026-04-26 09:55 | 24.13234 | 170.38945 | 30180 ft | 493 kts | 251° |
| 2026-04-26 09:55 | 24.10863 | 170.31945 | 30182 ft | 493 kts | 251° |
| 2026-04-26 09:56 | 24.08475 | 170.24901 | 30182 ft | 494 kts | 251° |
| 2026-04-26 09:56 | 24.06082 | 170.17856 | 30176 ft | 494 kts | 251° |
| 2026-04-26 09:57 | 24.03686 | 170.10813 | 30178 ft | 494 kts | 251° |
| 2026-04-26 09:57 | 24.01284 | 170.03766 | 30175 ft | 494 kts | 251° |
| 2026-04-26 09:58 | 23.99057 | 169.96663 | 30180 ft | 492 kts | 256° |
| 2026-04-26 09:58 | 23.97183 | 169.89506 | 30181 ft | 492 kts | 256° |
| 2026-04-26 09:59 | 23.95310 | 169.82254 | 30179 ft | 493 kts | 256° |
| 2026-04-26 09:59 | 23.93439 | 169.75102 | 30177 ft | 493 kts | 256° |
| 2026-04-26 10:00 | 23.91536 | 169.67898 | 30176 ft | 493 kts | 256° |
| 2026-04-26 10:00 | 23.89629 | 169.60711 | 30181 ft | 493 kts | 256° |
| 2026-04-26 10:01 | 23.87717 | 169.53522 | 30177 ft | 492 kts | 256° |
| 2026-04-26 10:01 | 23.85805 | 169.46337 | 30175 ft | 492 kts | 256° |
| 2026-04-26 10:02 | 23.83886 | 169.39144 | 30175 ft | 492 kts | 256° |
| 2026-04-26 10:02 | 23.81969 | 169.31972 | 30177 ft | 492 kts | 256° |
| 2026-04-26 10:03 | 23.80047 | 169.24795 | 30175 ft | 492 kts | 256° |
| 2026-04-26 10:03 | 23.78135 | 169.17664 | 30175 ft | 492 kts | 256° |
| 2026-04-26 10:04 | 23.76207 | 169.10495 | 30175 ft | 492 kts | 256° |
| 2026-04-26 10:04 | 23.74275 | 169.03329 | 30182 ft | 492 kts | 256° |
| 2026-04-26 10:05 | 23.72341 | 168.96165 | 30186 ft | 492 kts | 256° |
| 2026-04-26 10:05 | 23.70404 | 168.89005 | 30177 ft | 492 kts | 256° |
| 2026-04-26 10:06 | 23.68461 | 168.81841 | 30174 ft | 492 kts | 255° |
| 2026-04-26 10:06 | 23.66521 | 168.74698 | 30177 ft | 491 kts | 255° |
| 2026-04-26 10:07 | 23.64589 | 168.67600 | 30176 ft | 491 kts | 255° |
| 2026-04-26 10:07 | 23.62642 | 168.60455 | 30179 ft | 491 kts | 256° |
| 2026-04-26 10:08 | 23.60693 | 168.53324 | 30181 ft | 490 kts | 255° |
| 2026-04-26 10:08 | 23.58743 | 168.46202 | 30180 ft | 490 kts | 255° |
| 2026-04-26 10:09 | 23.56790 | 168.39080 | 30179 ft | 490 kts | 255° |
| 2026-04-26 10:09 | 23.54832 | 168.31959 | 30182 ft | 490 kts | 255° |
| 2026-04-26 10:10 | 23.52875 | 168.24844 | 30178 ft | 490 kts | 255° |
| 2026-04-26 10:10 | 23.50909 | 168.17722 | 30181 ft | 490 kts | 255° |
| 2026-04-26 10:11 | 23.48943 | 168.10616 | 30176 ft | 490 kts | 255° |
| 2026-04-26 10:11 | 23.46976 | 168.03510 | 30178 ft | 490 kts | 255° |
| 2026-04-26 10:12 | 23.45004 | 167.96405 | 30174 ft | 489 kts | 255° |
| 2026-04-26 10:12 | 23.43043 | 167.89353 | 30179 ft | 489 kts | 255° |
| 2026-04-26 10:13 | 23.41068 | 167.82264 | 30177 ft | 489 kts | 255° |
| 2026-04-26 10:13 | 23.39092 | 167.75183 | 30176 ft | 489 kts | 255° |
| 2026-04-26 10:14 | 23.37114 | 167.68107 | 30175 ft | 488 kts | 255° |
| 2026-04-26 10:14 | 23.35130 | 167.61028 | 30176 ft | 489 kts | 255° |
| 2026-04-26 10:15 | 23.33145 | 167.53955 | 30171 ft | 489 kts | 255° |
| 2026-04-26 10:15 | 23.31153 | 167.46874 | 30170 ft | 489 kts | 255° |
| 2026-04-26 10:16 | 23.29171 | 167.39842 | 30175 ft | 489 kts | 255° |
| 2026-04-26 10:16 | 23.27173 | 167.32766 | 30178 ft | 489 kts | 255° |
| 2026-04-26 10:17 | 23.25172 | 167.25689 | 30171 ft | 489 kts | 255° |
| 2026-04-26 10:17 | 23.23505 | 167.19804 | 30175 ft | 489 kts | 255° |
| 2026-04-26 10:18 | 23.21497 | 167.12733 | 30172 ft | 490 kts | 255° |
| 2026-04-26 10:18 | 23.19488 | 167.05666 | 30174 ft | 490 kts | 255° |
| 2026-04-26 10:19 | 23.17470 | 166.98585 | 30177 ft | 490 kts | 255° |
| 2026-04-26 10:19 | 23.15453 | 166.91520 | 30174 ft | 490 kts | 255° |
| 2026-04-26 10:20 | 23.13433 | 166.84455 | 30174 ft | 490 kts | 254° |
| 2026-04-26 10:20 | 23.11407 | 166.77382 | 30167 ft | 490 kts | 255° |
| 2026-04-26 10:21 | 23.09378 | 166.70311 | 30171 ft | 490 kts | 255° |
| 2026-04-26 10:21 | 23.07345 | 166.63241 | 30169 ft | 491 kts | 255° |
| 2026-04-26 10:22 | 23.05320 | 166.56209 | 30172 ft | 491 kts | 254° |
| 2026-04-26 10:22 | 23.03275 | 166.49124 | 30166 ft | 491 kts | 255° |
| 2026-04-26 10:23 | 23.01228 | 166.42048 | 30166 ft | 491 kts | 254° |
| 2026-04-26 10:23 | 22.99181 | 166.34979 | 30166 ft | 490 kts | 254° |
| 2026-04-26 10:24 | 22.97133 | 166.27923 | 30166 ft | 490 kts | 254° |
| 2026-04-26 10:24 | 22.95084 | 166.20873 | 30169 ft | 489 kts | 254° |
| 2026-04-26 10:25 | 22.93035 | 166.13838 | 30167 ft | 489 kts | 254° |
| 2026-04-26 10:25 | 22.90981 | 166.06801 | 30164 ft | 489 kts | 254° |
| 2026-04-26 10:26 | 22.88924 | 165.99764 | 30168 ft | 489 kts | 254° |
| 2026-04-26 10:26 | 22.86882 | 165.92792 | 30171 ft | 488 kts | 254° |
| 2026-04-26 10:27 | 22.84821 | 165.85769 | 30166 ft | 488 kts | 254° |
| 2026-04-26 10:27 | 22.82758 | 165.78749 | 30168 ft | 488 kts | 254° |
| 2026-04-26 10:28 | 22.80693 | 165.71737 | 30167 ft | 488 kts | 254° |
| 2026-04-26 10:28 | 22.78625 | 165.64722 | 30165 ft | 488 kts | 254° |
| 2026-04-26 10:29 | 22.76557 | 165.57721 | 30161 ft | 488 kts | 254° |
| 2026-04-26 10:29 | 22.74480 | 165.50708 | 30168 ft | 488 kts | 254° |
| 2026-04-26 10:30 | 22.72402 | 165.43698 | 30161 ft | 489 kts | 254° |
| 2026-04-26 10:30 | 22.70331 | 165.36727 | 30164 ft | 489 kts | 254° |
| 2026-04-26 10:31 | 22.68243 | 165.29709 | 30169 ft | 489 kts | 254° |
| 2026-04-26 10:31 | 22.66153 | 165.22699 | 30162 ft | 489 kts | 254° |
| 2026-04-26 10:32 | 22.64069 | 165.15720 | 30161 ft | 489 kts | 253° |
| 2026-04-26 10:32 | 22.61972 | 165.08711 | 30155 ft | 489 kts | 253° |
| 2026-04-26 10:33 | 22.59873 | 165.01711 | 30163 ft | 488 kts | 253° |
| 2026-04-26 10:33 | 22.57776 | 164.94723 | 30154 ft | 488 kts | 253° |
| 2026-04-26 10:34 | 22.55676 | 164.87740 | 30162 ft | 488 kts | 253° |
| 2026-04-26 10:34 | 22.53574 | 164.80762 | 30165 ft | 488 kts | 253° |
| 2026-04-26 10:35 | 22.51482 | 164.73831 | 30161 ft | 488 kts | 253° |
| 2026-04-26 10:35 | 22.49374 | 164.66859 | 30157 ft | 487 kts | 253° |
| 2026-04-26 10:36 | 22.47265 | 164.59890 | 30168 ft | 487 kts | 253° |
| 2026-04-26 10:36 | 22.45150 | 164.52920 | 30157 ft | 487 kts | 253° |
| 2026-04-26 10:37 | 22.43037 | 164.45967 | 30160 ft | 487 kts | 253° |
| 2026-04-26 10:37 | 22.40931 | 164.39048 | 30156 ft | 487 kts | 253° |
| 2026-04-26 10:38 | 22.38811 | 164.32095 | 30157 ft | 487 kts | 253° |
| 2026-04-26 10:38 | 22.36686 | 164.25136 | 30149 ft | 487 kts | 253° |
| 2026-04-26 10:39 | 22.34557 | 164.18178 | 30155 ft | 487 kts | 253° |
| 2026-04-26 10:39 | 22.32427 | 164.11230 | 30146 ft | 487 kts | 253° |
| 2026-04-26 10:40 | 22.30307 | 164.04323 | 30155 ft | 487 kts | 253° |
| 2026-04-26 10:40 | 22.28171 | 163.97378 | 30150 ft | 487 kts | 253° |
| 2026-04-26 10:41 | 22.26035 | 163.90442 | 30150 ft | 487 kts | 253° |
| 2026-04-26 10:41 | 22.23894 | 163.83501 | 30153 ft | 487 kts | 253° |
| 2026-04-26 10:42 | 22.21750 | 163.76567 | 30155 ft | 487 kts | 253° |
| 2026-04-26 10:42 | 22.19604 | 163.69632 | 30153 ft | 487 kts | 253° |
| 2026-04-26 10:43 | 22.17455 | 163.62703 | 30154 ft | 487 kts | 253° |
| 2026-04-26 10:43 | 22.15301 | 163.55768 | 30151 ft | 487 kts | 253° |
| 2026-04-26 10:44 | 22.13145 | 163.48840 | 30147 ft | 488 kts | 253° |
| 2026-04-26 10:44 | 22.10981 | 163.41896 | 30150 ft | 488 kts | 253° |
| 2026-04-26 10:45 | 22.08816 | 163.34959 | 30149 ft | 488 kts | 252° |
| 2026-04-26 10:45 | 22.06647 | 163.28023 | 30149 ft | 488 kts | 252° |
| 2026-04-26 10:46 | 22.04477 | 163.21095 | 30147 ft | 488 kts | 252° |
| 2026-04-26 10:46 | 22.02302 | 163.14161 | 30146 ft | 488 kts | 252° |
| 2026-04-26 10:47 | 22.00127 | 163.07239 | 30144 ft | 488 kts | 252° |
| 2026-04-26 10:47 | 21.97947 | 163.00313 | 30144 ft | 488 kts | 252° |
| 2026-04-26 10:48 | 21.95764 | 162.93390 | 30146 ft | 488 kts | 252° |
| 2026-04-26 10:48 | 21.93578 | 162.86468 | 30143 ft | 488 kts | 252° |
| 2026-04-26 10:49 | 21.91392 | 162.79555 | 30147 ft | 488 kts | 252° |
| 2026-04-26 10:49 | 21.89200 | 162.72639 | 30144 ft | 488 kts | 252° |
| 2026-04-26 10:50 | 21.87375 | 162.66885 | 30148 ft | 488 kts | 252° |
| 2026-04-26 10:50 | 21.84821 | 162.58848 | 30143 ft | 488 kts | 252° |
| 2026-04-26 10:51 | 21.81520 | 162.48483 | 30143 ft | 488 kts | 252° |
| 2026-04-26 10:52 | 21.79313 | 162.41569 | 30141 ft | 487 kts | 252° |
| 2026-04-26 10:52 | 21.77107 | 162.34666 | 30141 ft | 487 kts | 252° |
| 2026-04-26 10:53 | 21.74911 | 162.27808 | 30144 ft | 487 kts | 252° |
| 2026-04-26 10:53 | 21.72701 | 162.20916 | 30142 ft | 487 kts | 252° |
| 2026-04-26 10:54 | 21.69382 | 162.10585 | 30145 ft | 487 kts | 252° |
| 2026-04-26 10:54 | 21.67164 | 162.03697 | 30141 ft | 487 kts | 252° |
| 2026-04-26 10:55 | 21.64943 | 161.96807 | 30144 ft | 487 kts | 252° |
| 2026-04-26 10:55 | 21.63098 | 161.91095 | 30141 ft | 487 kts | 252° |
| 2026-04-26 10:56 | 21.60511 | 161.83097 | 30145 ft | 487 kts | 252° |
| 2026-04-26 10:56 | 21.58284 | 161.76224 | 30139 ft | 487 kts | 252° |
| 2026-04-26 10:57 | 21.56056 | 161.69358 | 30138 ft | 487 kts | 252° |
| 2026-04-26 10:57 | 21.53823 | 161.62487 | 30132 ft | 487 kts | 252° |
| 2026-04-26 10:58 | 21.51591 | 161.55628 | 30040 ft | 487 kts | 252° |
| 2026-04-26 10:58 | 21.49357 | 161.48776 | 30126 ft | 485 kts | 251° |
| 2026-04-26 10:59 | 21.47134 | 161.41972 | 30125 ft | 480 kts | 251° |
| 2026-04-26 10:59 | 21.44910 | 161.35168 | 30125 ft | 482 kts | 251° |
| 2026-04-26 11:00 | 21.42685 | 161.28376 | 30132 ft | 482 kts | 251° |
| 2026-04-26 11:00 | 21.40458 | 161.21587 | 30132 ft | 482 kts | 251° |
| 2026-04-26 11:01 | 21.38240 | 161.14835 | 30134 ft | 485 kts | 251° |
| 2026-04-26 11:01 | 21.36004 | 161.08040 | 30127 ft | 482 kts | 251° |
| 2026-04-26 11:02 | 21.33766 | 161.01251 | 30128 ft | 482 kts | 251° |
| 2026-04-26 11:02 | 21.31904 | 160.95606 | 30130 ft | 482 kts | 251° |
| 2026-04-26 11:03 | 21.29662 | 160.88819 | 30125 ft | 481 kts | 251° |
| 2026-04-26 11:03 | 21.27408 | 160.82012 | 30137 ft | 485 kts | 251° |
| 2026-04-26 11:04 | 21.25161 | 160.75232 | 30122 ft | 484 kts | 251° |
| 2026-04-26 11:04 | 21.22905 | 160.68438 | 30132 ft | 484 kts | 251° |
| 2026-04-26 11:05 | 21.20644 | 160.61637 | 30126 ft | 481 kts | 251° |
| 2026-04-26 11:05 | 21.18407 | 160.54916 | 30134 ft | 487 kts | 251° |
| 2026-04-26 11:06 | 21.16115 | 160.48042 | 30128 ft | 491 kts | 250° |
| 2026-04-26 11:06 | 21.13797 | 160.41104 | 30136 ft | 499 kts | 250° |
| 2026-04-26 11:07 | 21.11454 | 160.34099 | 30119 ft | 499 kts | 250° |
| 2026-04-26 11:07 | 21.09117 | 160.27119 | 30126 ft | 501 kts | 250° |
| 2026-04-26 11:08 | 21.06769 | 160.20122 | 30117 ft | 497 kts | 250° |
| 2026-04-26 11:08 | 21.04420 | 160.13131 | 30127 ft | 500 kts | 250° |
| 2026-04-26 11:09 | 21.02089 | 160.06199 | 30115 ft | 495 kts | 250° |
| 2026-04-26 11:09 | 20.99886 | 159.99268 | 30110 ft | 488 kts | 255° |
| 2026-04-26 11:10 | 20.98585 | 159.92212 | 30127 ft | 484 kts | 260° |
| 2026-04-26 11:10 | 20.97432 | 159.85102 | 30112 ft | 482 kts | 260° |
| 2026-04-26 11:11 | 20.96256 | 159.78006 | 30124 ft | 487 kts | 260° |
| 2026-04-26 11:11 | 20.95054 | 159.70915 | 30120 ft | 486 kts | 260° |
| 2026-04-26 11:12 | 20.93833 | 159.63796 | 30111 ft | 485 kts | 259° |
| 2026-04-26 11:12 | 20.92616 | 159.56713 | 30123 ft | 486 kts | 259° |
| 2026-04-26 11:13 | 20.91404 | 159.49675 | 30127 ft | 485 kts | 259° |
| 2026-04-26 11:13 | 20.90177 | 159.42564 | 30110 ft | 485 kts | 259° |
| 2026-04-26 11:14 | 20.88953 | 159.35489 | 30117 ft | 486 kts | 259° |
| 2026-04-26 11:14 | 20.87722 | 159.28387 | 30108 ft | 485 kts | 259° |
| 2026-04-26 11:15 | 20.86491 | 159.21307 | 30128 ft | 486 kts | 259° |
| 2026-04-26 11:15 | 20.85256 | 159.14219 | 30123 ft | 485 kts | 259° |
| 2026-04-26 11:16 | 20.84017 | 159.07129 | 30117 ft | 488 kts | 259° |
| 2026-04-26 11:16 | 20.82768 | 158.99999 | 30107 ft | 483 kts | 259° |
| 2026-04-26 11:17 | 20.81525 | 158.92916 | 30103 ft | 485 kts | 259° |
| 2026-04-26 11:17 | 20.80282 | 158.85860 | 30120 ft | 487 kts | 259° |
| 2026-04-26 11:18 | 20.79033 | 158.78785 | 30114 ft | 485 kts | 259° |
| 2026-04-26 11:18 | 20.77778 | 158.71685 | 30109 ft | 483 kts | 259° |
| 2026-04-26 11:19 | 20.76519 | 158.64591 | 30111 ft | 485 kts | 259° |
| 2026-04-26 11:19 | 20.75262 | 158.57521 | 30109 ft | 485 kts | 259° |
| 2026-04-26 11:20 | 20.74214 | 158.51640 | 30113 ft | 486 kts | 259° |
| 2026-04-26 11:20 | 20.72734 | 158.43357 | 30100 ft | 483 kts | 258° |
| 2026-04-26 11:21 | 20.71470 | 158.36304 | 30105 ft | 486 kts | 258° |
| 2026-04-26 11:21 | 20.70199 | 158.29223 | 30110 ft | 486 kts | 258° |
| 2026-04-26 11:22 | 20.68918 | 158.22106 | 30120 ft | 489 kts | 258° |
| 2026-04-26 11:22 | 20.67639 | 158.15013 | 30108 ft | 484 kts | 258° |
| 2026-04-26 11:23 | 20.66366 | 158.07974 | 30106 ft | 483 kts | 258° |
| 2026-04-26 11:23 | 20.65084 | 158.00908 | 30103 ft | 485 kts | 258° |
| 2026-04-26 11:24 | 20.63798 | 157.93831 | 30112 ft | 487 kts | 258° |
| 2026-04-26 11:24 | 20.62520 | 157.86814 | 30115 ft | 487 kts | 258° |
| 2026-04-26 11:25 | 20.61228 | 157.79740 | 30107 ft | 485 kts | 258° |
| 2026-04-26 11:25 | 20.59933 | 157.72661 | 30104 ft | 484 kts | 258° |
| 2026-04-26 11:26 | 20.58633 | 157.65579 | 30109 ft | 485 kts | 258° |
| 2026-04-26 11:26 | 20.57328 | 157.58489 | 30110 ft | 487 kts | 258° |
| 2026-04-26 11:27 | 20.56025 | 157.51424 | 30110 ft | 486 kts | 258° |
| 2026-04-26 11:27 | 20.54720 | 157.44359 | 30113 ft | 488 kts | 258° |
| 2026-04-26 11:28 | 20.53411 | 157.37288 | 30103 ft | 484 kts | 258° |
| 2026-04-26 11:28 | 20.52090 | 157.30178 | 30100 ft | 487 kts | 258° |
| 2026-04-26 11:29 | 20.50775 | 157.23114 | 30108 ft | 487 kts | 258° |
| 2026-04-26 11:29 | 20.49454 | 157.16034 | 30091 ft | 484 kts | 258° |
| 2026-04-26 11:30 | 20.48357 | 157.10164 | 30103 ft | 486 kts | 258° |
| 2026-04-26 11:30 | 20.46817 | 157.01946 | 30095 ft | 486 kts | 258° |
| 2026-04-26 11:31 | 20.45490 | 156.94884 | 30100 ft | 486 kts | 258° |
| 2026-04-26 11:31 | 20.44160 | 156.87822 | 30100 ft | 486 kts | 258° |
| 2026-04-26 11:32 | 20.42830 | 156.80770 | 30097 ft | 485 kts | 258° |
| 2026-04-26 11:32 | 20.41494 | 156.73710 | 30096 ft | 485 kts | 257° |
| 2026-04-26 11:33 | 20.40154 | 156.66648 | 30088 ft | 485 kts | 257° |
| 2026-04-26 11:33 | 20.38816 | 156.59605 | 30096 ft | 488 kts | 257° |
| 2026-04-26 11:34 | 20.37467 | 156.52519 | 30077 ft | 484 kts | 258° |
| 2026-04-26 11:34 | 20.36124 | 156.45485 | 30099 ft | 488 kts | 257° |
| 2026-04-26 11:35 | 20.34782 | 156.38479 | 30089 ft | 484 kts | 257° |
| 2026-04-26 11:35 | 20.33647 | 156.32556 | 30097 ft | 489 kts | 257° |
| 2026-04-26 11:36 | 20.32051 | 156.24255 | 30097 ft | 494 kts | 257° |
| 2026-04-26 11:36 | 20.30664 | 156.17058 | 30095 ft | 497 kts | 257° |
| 2026-04-26 11:37 | 20.29265 | 156.09812 | 30094 ft | 500 kts | 257° |
| 2026-04-26 11:37 | 20.27870 | 156.02601 | 30088 ft | 496 kts | 257° |
| 2026-04-26 11:38 | 20.26480 | 155.95438 | 30078 ft | 491 kts | 257° |
| 2026-04-26 11:38 | 20.25108 | 155.88380 | 30084 ft | 489 kts | 257° |
| 2026-04-26 11:39 | 20.23719 | 155.81253 | 30097 ft | 494 kts | 257° |
| 2026-04-26 11:39 | 20.22314 | 155.74056 | 30101 ft | 498 kts | 257° |
| 2026-04-26 11:40 | 20.20901 | 155.66840 | 30090 ft | 498 kts | 257° |
| 2026-04-26 11:40 | 20.19478 | 155.59593 | 30084 ft | 498 kts | 257° |
| 2026-04-26 11:42 | 20.13859 | 155.31103 | 30085 ft | 485 kts | 257° |
| 2026-04-26 11:43 | 20.12465 | 155.24084 | 30088 ft | 486 kts | 257° |
| 2026-04-26 11:43 | 20.11072 | 155.17075 | 30073 ft | 486 kts | 257° |
| 2026-04-26 11:44 | 20.09675 | 155.10064 | 30089 ft | 486 kts | 257° |
| 2026-04-26 11:44 | 20.08265 | 155.03007 | 30084 ft | 488 kts | 257° |
| 2026-04-26 11:45 | 20.06842 | 154.95897 | 30088 ft | 493 kts | 257° |
| 2026-04-26 11:45 | 20.05406 | 154.88733 | 30081 ft | 495 kts | 257° |
| 2026-04-26 11:46 | 20.03966 | 154.81570 | 30079 ft | 495 kts | 256° |
| 2026-04-26 11:46 | 20.02528 | 154.74426 | 30075 ft | 493 kts | 256° |
| 2026-04-26 11:47 | 20.01090 | 154.67304 | 30075 ft | 492 kts | 256° |
| 2026-04-26 11:47 | 19.99653 | 154.60205 | 30074 ft | 491 kts | 256° |
| 2026-04-26 11:48 | 19.98215 | 154.53115 | 30079 ft | 490 kts | 256° |
| 2026-04-26 11:48 | 19.96784 | 154.46067 | 30080 ft | 490 kts | 256° |
| 2026-04-26 11:49 | 19.95583 | 154.40165 | 30071 ft | 490 kts | 256° |
| 2026-04-26 11:49 | 19.94137 | 154.33081 | 30074 ft | 490 kts | 256° |
| 2026-04-26 11:50 | 19.92690 | 154.26000 | 30073 ft | 490 kts | 256° |
| 2026-04-26 11:50 | 19.91240 | 154.18918 | 30073 ft | 490 kts | 256° |
| 2026-04-26 11:51 | 19.89787 | 154.11843 | 30072 ft | 490 kts | 256° |
| 2026-04-26 11:51 | 19.88329 | 154.04756 | 30072 ft | 490 kts | 256° |
| 2026-04-26 11:52 | 19.86880 | 153.97728 | 30075 ft | 490 kts | 256° |
| 2026-04-26 11:52 | 19.85416 | 153.90642 | 30069 ft | 491 kts | 256° |
| 2026-04-26 11:53 | 19.83951 | 153.83560 | 30065 ft | 490 kts | 256° |
| 2026-04-26 11:54 | 19.81747 | 153.72945 | 30067 ft | 490 kts | 256° |
| 2026-04-26 11:54 | 19.80276 | 153.65873 | 30067 ft | 490 kts | 256° |
| 2026-04-26 11:55 | 19.78803 | 153.58807 | 30065 ft | 490 kts | 256° |
| 2026-04-26 11:55 | 19.77335 | 153.51780 | 30062 ft | 490 kts | 256° |
| 2026-04-26 11:56 | 19.75855 | 153.44712 | 30062 ft | 490 kts | 256° |
| 2026-04-26 11:56 | 19.74371 | 153.37642 | 30064 ft | 490 kts | 256° |
| 2026-04-26 11:57 | 19.72887 | 153.30582 | 30062 ft | 490 kts | 256° |
| 2026-04-26 11:57 | 19.71398 | 153.23513 | 30064 ft | 490 kts | 256° |
| 2026-04-26 11:58 | 19.69906 | 153.16448 | 30063 ft | 491 kts | 256° |
| 2026-04-26 11:58 | 19.68412 | 153.09383 | 30060 ft | 490 kts | 256° |
| 2026-04-26 11:59 | 19.66914 | 153.02318 | 30061 ft | 491 kts | 256° |
| 2026-04-26 11:59 | 19.65413 | 152.95249 | 30060 ft | 491 kts | 255° |
| 2026-04-26 12:00 | 19.63910 | 152.88187 | 30062 ft | 491 kts | 255° |
| 2026-04-26 12:00 | 19.62413 | 152.81170 | 30058 ft | 491 kts | 255° |
| 2026-04-26 12:01 | 19.60904 | 152.74108 | 30057 ft | 491 kts | 255° |
| 2026-04-26 12:01 | 19.59393 | 152.67051 | 30052 ft | 491 kts | 255° |
| 2026-04-26 12:02 | 19.57877 | 152.59981 | 30058 ft | 491 kts | 255° |
| 2026-04-26 12:02 | 19.56361 | 152.52928 | 30055 ft | 491 kts | 255° |
| 2026-04-26 12:03 | 19.54842 | 152.45877 | 30060 ft | 491 kts | 255° |
| 2026-04-26 12:03 | 19.53318 | 152.38819 | 30055 ft | 491 kts | 255° |
| 2026-04-26 12:04 | 19.51791 | 152.31757 | 30051 ft | 491 kts | 255° |
| 2026-04-26 12:04 | 19.50272 | 152.24747 | 30057 ft | 491 kts | 255° |
| 2026-04-26 12:05 | 19.48739 | 152.17686 | 30059 ft | 491 kts | 255° |
| 2026-04-26 12:05 | 19.47206 | 152.10636 | 30051 ft | 491 kts | 255° |
| 2026-04-26 12:06 | 19.45669 | 152.03587 | 30054 ft | 490 kts | 255° |
| 2026-04-26 12:06 | 19.44133 | 151.96551 | 30046 ft | 490 kts | 255° |
| 2026-04-26 12:07 | 19.42593 | 151.89515 | 30049 ft | 490 kts | 255° |
| 2026-04-26 12:07 | 19.41063 | 151.82537 | 30047 ft | 489 kts | 255° |
| 2026-04-26 12:08 | 19.39519 | 151.75506 | 30050 ft | 489 kts | 255° |
| 2026-04-26 12:08 | 19.37972 | 151.68478 | 30049 ft | 489 kts | 255° |
| 2026-04-26 12:09 | 19.36424 | 151.61461 | 30047 ft | 489 kts | 255° |
| 2026-04-26 12:09 | 19.34883 | 151.54485 | 30041 ft | 489 kts | 255° |
| 2026-04-26 12:10 | 19.33328 | 151.47459 | 30044 ft | 489 kts | 255° |
| 2026-04-26 12:10 | 19.31775 | 151.40460 | 30038 ft | 488 kts | 255° |
| 2026-04-26 12:11 | 19.30220 | 151.33461 | 30043 ft | 488 kts | 255° |
| 2026-04-26 12:11 | 19.28663 | 151.26468 | 30039 ft | 487 kts | 255° |
| 2026-04-26 12:12 | 19.27113 | 151.19521 | 30042 ft | 487 kts | 255° |
| 2026-04-26 12:12 | 19.25556 | 151.12552 | 30040 ft | 486 kts | 254° |
| 2026-04-26 12:13 | 19.23994 | 151.05575 | 30039 ft | 486 kts | 255° |
| 2026-04-26 12:13 | 19.22431 | 150.98608 | 30036 ft | 486 kts | 254° |
| 2026-04-26 12:14 | 19.20865 | 150.91641 | 30038 ft | 486 kts | 254° |
| 2026-04-26 12:14 | 19.19300 | 150.84688 | 30040 ft | 486 kts | 254° |
| 2026-04-26 12:15 | 19.17729 | 150.77727 | 30040 ft | 486 kts | 254° |
| 2026-04-26 12:15 | 19.16167 | 150.70818 | 30035 ft | 486 kts | 254° |
| 2026-04-26 12:16 | 19.14593 | 150.63865 | 30036 ft | 486 kts | 254° |
| 2026-04-26 12:16 | 19.13018 | 150.56917 | 30035 ft | 485 kts | 254° |
| 2026-04-26 12:17 | 19.11439 | 150.49974 | 30035 ft | 485 kts | 254° |
| 2026-04-26 12:17 | 19.09863 | 150.43048 | 30035 ft | 484 kts | 254° |
| 2026-04-26 12:18 | 19.08286 | 150.36129 | 30035 ft | 483 kts | 254° |
| 2026-04-26 12:18 | 19.06708 | 150.29227 | 30031 ft | 483 kts | 254° |
| 2026-04-26 12:19 | 19.05130 | 150.22331 | 30032 ft | 482 kts | 254° |
| 2026-04-26 12:19 | 19.03551 | 150.15444 | 30033 ft | 482 kts | 254° |
| 2026-04-26 12:20 | 19.01970 | 150.08565 | 30032 ft | 482 kts | 254° |
| 2026-04-26 12:20 | 19.00397 | 150.01725 | 30027 ft | 482 kts | 254° |
| 2026-04-26 12:21 | 18.99030 | 149.94783 | 30030 ft | 482 kts | 257° |
| 2026-04-26 12:21 | 18.97852 | 149.87800 | 30029 ft | 483 kts | 258° |
| 2026-04-26 12:22 | 18.96680 | 149.80812 | 30029 ft | 483 kts | 258° |
| 2026-04-26 12:22 | 18.95483 | 149.73818 | 30031 ft | 483 kts | 258° |
| 2026-04-26 12:23 | 18.94279 | 149.66877 | 30026 ft | 483 kts | 258° |
| 2026-04-26 12:23 | 18.93063 | 149.59893 | 30026 ft | 483 kts | 258° |
| 2026-04-26 12:24 | 18.91846 | 149.52914 | 30024 ft | 483 kts | 258° |
| 2026-04-26 12:24 | 18.90632 | 149.45971 | 30012 ft | 477 kts | 258° |
| 2026-04-26 12:25 | 18.88801 | 149.35521 | 30027 ft | 487 kts | 258° |
| 2026-04-26 12:25 | 18.87560 | 149.28456 | 30032 ft | 492 kts | 258° |
| 2026-04-26 12:26 | 18.86299 | 149.21292 | 30013 ft | 494 kts | 258° |
| 2026-04-26 12:26 | 18.85040 | 149.14158 | 30029 ft | 496 kts | 259° |
| 2026-04-26 12:27 | 18.83770 | 149.06983 | 30017 ft | 497 kts | 259° |
| 2026-04-26 12:27 | 18.82500 | 148.99812 | 30022 ft | 495 kts | 259° |
| 2026-04-26 12:28 | 18.81228 | 148.92657 | 30018 ft | 495 kts | 259° |
| 2026-04-26 12:28 | 18.79965 | 148.85563 | 30022 ft | 496 kts | 259° |
| 2026-04-26 12:29 | 18.78686 | 148.78399 | 30021 ft | 495 kts | 259° |
| 2026-04-26 12:30 | 18.76761 | 148.67648 | 30019 ft | 498 kts | 259° |
| 2026-04-26 12:30 | 18.75478 | 148.60502 | 30011 ft | 494 kts | 259° |
| 2026-04-26 12:31 | 18.73548 | 148.49779 | 30014 ft | 494 kts | 259° |
| 2026-04-26 12:31 | 18.72253 | 148.42606 | 30013 ft | 496 kts | 259° |
| 2026-04-26 12:32 | 18.70964 | 148.35488 | 30013 ft | 496 kts | 259° |
| 2026-04-26 12:33 | 18.69018 | 148.24767 | 30008 ft | 495 kts | 260° |
| 2026-04-26 12:33 | 18.67713 | 148.17592 | 30007 ft | 495 kts | 260° |
| 2026-04-26 12:34 | 18.66415 | 148.10484 | 30028 ft | 495 kts | 260° |
| 2026-04-26 12:34 | 18.65111 | 148.03343 | 30012 ft | 496 kts | 260° |
| 2026-04-26 12:35 | 18.64026 | 147.97422 | 30006 ft | 492 kts | 260° |
| 2026-04-26 12:35 | 18.62720 | 147.90300 | 30007 ft | 494 kts | 260° |
| 2026-04-26 12:36 | 18.61412 | 147.83190 | 30015 ft | 494 kts | 260° |
| 2026-04-26 12:36 | 18.60098 | 147.76064 | 30013 ft | 492 kts | 260° |
| 2026-04-26 12:37 | 18.58784 | 147.68963 | 30018 ft | 494 kts | 260° |
| 2026-04-26 12:37 | 18.57482 | 147.61925 | 30022 ft | 494 kts | 260° |
| 2026-04-26 12:38 | 18.56165 | 147.54825 | 30013 ft | 492 kts | 260° |
| 2026-04-26 12:38 | 18.54849 | 147.47746 | 30014 ft | 492 kts | 260° |
| 2026-04-26 12:39 | 18.53532 | 147.40676 | 30022 ft | 493 kts | 260° |
| 2026-04-26 12:39 | 18.52211 | 147.33602 | 30007 ft | 490 kts | 260° |
| 2026-04-26 12:40 | 18.50898 | 147.26594 | 30006 ft | 484 kts | 260° |
| 2026-04-26 12:40 | 18.49614 | 147.19755 | 30007 ft | 475 kts | 260° |
| 2026-04-26 12:41 | 18.48320 | 147.12859 | 30011 ft | 478 kts | 260° |
| 2026-04-26 12:41 | 18.47028 | 147.05998 | 30018 ft | 478 kts | 260° |
| 2026-04-26 12:42 | 18.45735 | 146.99150 | 30017 ft | 477 kts | 260° |
| 2026-04-26 12:42 | 18.44431 | 146.92253 | 30015 ft | 479 kts | 260° |
| 2026-04-26 12:43 | 18.43131 | 146.85398 | 30012 ft | 477 kts | 260° |
| 2026-04-26 12:43 | 18.41829 | 146.78537 | 30017 ft | 477 kts | 260° |
| 2026-04-26 12:44 | 18.40525 | 146.71685 | 30010 ft | 477 kts | 260° |
| 2026-04-26 12:44 | 18.39218 | 146.64829 | 30011 ft | 477 kts | 260° |
| 2026-04-26 12:45 | 18.37912 | 146.57993 | 30019 ft | 477 kts | 260° |
| 2026-04-26 12:45 | 18.36604 | 146.51161 | 30014 ft | 476 kts | 260° |
| 2026-04-26 12:46 | 18.35303 | 146.44372 | 30014 ft | 475 kts | 260° |
| 2026-04-26 12:46 | 18.33988 | 146.37536 | 30021 ft | 478 kts | 260° |
| 2026-04-26 12:47 | 18.32667 | 146.30677 | 30011 ft | 476 kts | 260° |
| 2026-04-26 12:47 | 18.31361 | 146.23905 | 30016 ft | 474 kts | 260° |
| 2026-04-26 12:48 | 18.30044 | 146.17091 | 30018 ft | 476 kts | 260° |
| 2026-04-26 12:48 | 18.28724 | 146.10280 | 30009 ft | 473 kts | 260° |
| 2026-04-26 12:49 | 18.27401 | 146.03467 | 30015 ft | 475 kts | 260° |
| 2026-04-26 12:49 | 18.26079 | 145.96670 | 30011 ft | 473 kts | 260° |
| 2026-04-26 12:50 | 18.24757 | 145.89884 | 30001 ft | 472 kts | 260° |
| 2026-04-26 12:50 | 18.23432 | 145.83098 | 30022 ft | 476 kts | 260° |
| 2026-04-26 12:51 | 18.22089 | 145.76231 | 30022 ft | 482 kts | 260° |
| 2026-04-26 12:51 | 18.20729 | 145.69289 | 30025 ft | 487 kts | 260° |
| 2026-04-26 12:52 | 18.19369 | 145.62368 | 30010 ft | 486 kts | 259° |
| 2026-04-26 12:52 | 18.17998 | 145.55406 | 30016 ft | 487 kts | 259° |
| 2026-04-26 12:53 | 18.16628 | 145.48463 | 30017 ft | 484 kts | 259° |
| 2026-04-26 12:53 | 18.15255 | 145.41518 | 30007 ft | 483 kts | 259° |
| 2026-04-26 12:54 | 18.13890 | 145.34620 | 30008 ft | 480 kts | 260° |
| 2026-04-26 12:54 | 18.12536 | 145.27796 | 30005 ft | 473 kts | 260° |
| 2026-04-26 12:55 | 18.11201 | 145.21081 | 30008 ft | 468 kts | 260° |
| 2026-04-26 12:55 | 18.09853 | 145.14304 | 30026 ft | 478 kts | 260° |
| 2026-04-26 12:56 | 18.08489 | 145.07466 | 30014 ft | 482 kts | 259° |
| 2026-04-26 12:56 | 18.07111 | 145.00574 | 30010 ft | 480 kts | 260° |
| 2026-04-26 12:57 | 18.05741 | 144.93742 | 30002 ft | 475 kts | 259° |
| 2026-04-26 12:57 | 18.04385 | 144.86980 | 30006 ft | 470 kts | 259° |
| 2026-04-26 12:58 | 18.02366 | 144.76942 | 30014 ft | 467 kts | 259° |
| 2026-04-26 12:58 | 18.01019 | 144.70263 | 30012 ft | 467 kts | 259° |
| 2026-04-26 12:59 | 17.99671 | 144.63579 | 30012 ft | 468 kts | 260° |
| 2026-04-26 12:59 | 17.98317 | 144.56890 | 30011 ft | 468 kts | 259° |
| 2026-04-26 13:00 | 17.96968 | 144.50237 | 30012 ft | 469 kts | 259° |
| 2026-04-26 13:00 | 17.95607 | 144.43533 | 30010 ft | 469 kts | 259° |
| 2026-04-26 13:01 | 17.94243 | 144.36830 | 30007 ft | 468 kts | 259° |
| 2026-04-26 13:01 | 17.92882 | 144.30151 | 30007 ft | 467 kts | 259° |
| 2026-04-26 13:02 | 17.91520 | 144.23493 | 30006 ft | 466 kts | 259° |
| 2026-04-26 13:02 | 17.90169 | 144.16888 | 30007 ft | 465 kts | 259° |
| 2026-04-26 13:03 | 17.88808 | 144.10247 | 30009 ft | 464 kts | 259° |
| 2026-04-26 13:03 | 17.87450 | 144.03630 | 30011 ft | 463 kts | 259° |
| 2026-04-26 13:04 | 17.86092 | 143.97027 | 30006 ft | 462 kts | 259° |
| 2026-04-26 13:04 | 17.84731 | 143.90422 | 30009 ft | 462 kts | 260° |
| 2026-04-26 13:05 | 17.83373 | 143.83839 | 30012 ft | 462 kts | 259° |
| 2026-04-26 13:05 | 17.82018 | 143.77290 | 30004 ft | 462 kts | 259° |
| 2026-04-26 13:06 | 17.80650 | 143.70685 | 30007 ft | 462 kts | 259° |
| 2026-04-26 13:06 | 17.79283 | 143.64094 | 30008 ft | 462 kts | 259° |
| 2026-04-26 13:07 | 17.77911 | 143.57501 | 30003 ft | 462 kts | 259° |
| 2026-04-26 13:07 | 17.76538 | 143.50911 | 30007 ft | 462 kts | 259° |
| 2026-04-26 13:08 | 17.75163 | 143.44316 | 30008 ft | 462 kts | 259° |
| 2026-04-26 13:08 | 17.73793 | 143.37758 | 30010 ft | 463 kts | 259° |
| 2026-04-26 13:09 | 17.72410 | 143.31160 | 30010 ft | 463 kts | 259° |
| 2026-04-26 13:09 | 17.71028 | 143.24568 | 30007 ft | 463 kts | 259° |
| 2026-04-26 13:10 | 17.69645 | 143.17974 | 30008 ft | 462 kts | 259° |
| 2026-04-26 13:10 | 17.68259 | 143.11396 | 30007 ft | 462 kts | 259° |
| 2026-04-26 13:11 | 17.66879 | 143.04848 | 30009 ft | 461 kts | 259° |
| 2026-04-26 13:11 | 17.65491 | 142.98281 | 30006 ft | 461 kts | 259° |
| 2026-04-26 13:12 | 17.64105 | 142.91715 | 30008 ft | 460 kts | 259° |
| 2026-04-26 13:12 | 17.62717 | 142.85168 | 30009 ft | 460 kts | 259° |
| 2026-04-26 13:13 | 17.61324 | 142.78623 | 30008 ft | 460 kts | 259° |
| 2026-04-26 13:13 | 17.59931 | 142.72072 | 30009 ft | 460 kts | 259° |
| 2026-04-26 13:14 | 17.58537 | 142.65525 | 30008 ft | 460 kts | 259° |
| 2026-04-26 13:14 | 17.57150 | 142.59027 | 30007 ft | 460 kts | 259° |
| 2026-04-26 13:15 | 17.55752 | 142.52482 | 30009 ft | 460 kts | 259° |
| 2026-04-26 13:15 | 17.54589 | 142.47045 | 30009 ft | 460 kts | 259° |
| 2026-04-26 13:16 | 17.52952 | 142.39403 | 30008 ft | 460 kts | 259° |
| 2026-04-26 13:16 | 17.51546 | 142.32863 | 30011 ft | 459 kts | 259° |
| 2026-04-26 13:17 | 17.49439 | 142.23077 | 30005 ft | 459 kts | 259° |
| 2026-04-26 13:18 | 17.47338 | 142.13339 | 30008 ft | 458 kts | 259° |
| 2026-04-26 13:19 | 17.45224 | 142.03564 | 30012 ft | 459 kts | 259° |
| 2026-04-26 13:19 | 17.43810 | 141.97041 | 30007 ft | 459 kts | 259° |
| 2026-04-26 13:20 | 17.42394 | 141.90518 | 30006 ft | 459 kts | 259° |
| 2026-04-26 13:20 | 17.41215 | 141.85098 | 30009 ft | 460 kts | 259° |
| 2026-04-26 13:21 | 17.39792 | 141.78561 | 30008 ft | 460 kts | 259° |
| 2026-04-26 13:21 | 17.38364 | 141.72017 | 30010 ft | 461 kts | 258° |
| 2026-04-26 13:22 | 17.36937 | 141.65485 | 30011 ft | 460 kts | 258° |
| 2026-04-26 13:22 | 17.35588 | 141.59315 | 30009 ft | 459 kts | 258° |
| 2026-04-26 13:23 | 17.34157 | 141.52795 | 30010 ft | 459 kts | 258° |
| 2026-04-26 13:23 | 17.32726 | 141.46277 | 30012 ft | 459 kts | 259° |
| 2026-04-26 13:24 | 17.31294 | 141.39767 | 30010 ft | 459 kts | 258° |
| 2026-04-26 13:24 | 17.29860 | 141.33259 | 30013 ft | 458 kts | 258° |
| 2026-04-26 13:25 | 17.28427 | 141.26761 | 30010 ft | 458 kts | 258° |
| 2026-04-26 13:25 | 17.26993 | 141.20274 | 30010 ft | 458 kts | 258° |
| 2026-04-26 13:26 | 17.25559 | 141.13794 | 30012 ft | 457 kts | 258° |
| 2026-04-26 13:26 | 17.24132 | 141.07357 | 30009 ft | 456 kts | 258° |
| 2026-04-26 13:27 | 17.22695 | 141.00886 | 30010 ft | 456 kts | 258° |
| 2026-04-26 13:27 | 17.21258 | 140.94428 | 30010 ft | 456 kts | 258° |
| 2026-04-26 13:28 | 17.19820 | 140.87970 | 30012 ft | 455 kts | 258° |
| 2026-04-26 13:28 | 17.18384 | 140.81530 | 30011 ft | 454 kts | 258° |
| 2026-04-26 13:29 | 17.16944 | 140.75090 | 30015 ft | 454 kts | 258° |
| 2026-04-26 13:29 | 17.15503 | 140.68656 | 30014 ft | 454 kts | 258° |
| 2026-04-26 13:30 | 17.14066 | 140.62240 | 30014 ft | 453 kts | 258° |
| 2026-04-26 13:30 | 17.12626 | 140.55824 | 30012 ft | 453 kts | 258° |
| 2026-04-26 13:31 | 17.11192 | 140.49446 | 30009 ft | 454 kts | 258° |
| 2026-04-26 13:31 | 17.09749 | 140.43038 | 30012 ft | 454 kts | 258° |
| 2026-04-26 13:32 | 17.08302 | 140.36624 | 30015 ft | 454 kts | 258° |
| 2026-04-26 13:32 | 17.06845 | 140.30177 | 30016 ft | 454 kts | 258° |
| 2026-04-26 13:33 | 17.05391 | 140.23750 | 30017 ft | 455 kts | 258° |
| 2026-04-26 13:33 | 17.03936 | 140.17322 | 30017 ft | 455 kts | 258° |
| 2026-04-26 13:34 | 17.02471 | 140.10870 | 30011 ft | 456 kts | 258° |
| 2026-04-26 13:34 | 17.01007 | 140.04427 | 30015 ft | 456 kts | 258° |
| 2026-04-26 13:35 | 16.99776 | 139.97947 | 30011 ft | 454 kts | 265° |
| 2026-04-26 13:35 | 16.99277 | 139.91374 | 30020 ft | 454 kts | 266° |
| 2026-04-26 13:36 | 16.98851 | 139.85257 | 30020 ft | 453 kts | 266° |
| 2026-04-26 13:36 | 16.98374 | 139.78695 | 30020 ft | 452 kts | 266° |
| 2026-04-26 13:37 | 16.97878 | 139.72151 | 30015 ft | 451 kts | 266° |
| 2026-04-26 13:37 | 16.97373 | 139.65603 | 30017 ft | 451 kts | 266° |
| 2026-04-26 13:38 | 16.96866 | 139.59079 | 30020 ft | 450 kts | 266° |
| 2026-04-26 13:38 | 16.96363 | 139.52598 | 30020 ft | 450 kts | 266° |
| 2026-04-26 13:39 | 16.95856 | 139.46094 | 30022 ft | 449 kts | 266° |
| 2026-04-26 13:39 | 16.95345 | 139.39581 | 30020 ft | 449 kts | 266° |
| 2026-04-26 13:40 | 16.94833 | 139.33075 | 30018 ft | 450 kts | 266° |
| 2026-04-26 13:40 | 16.94318 | 139.26549 | 30021 ft | 450 kts | 266° |
| 2026-04-26 13:41 | 16.93804 | 139.20072 | 30015 ft | 450 kts | 266° |
| 2026-04-26 13:41 | 16.93284 | 139.13548 | 30019 ft | 450 kts | 266° |
| 2026-04-26 13:42 | 16.92764 | 139.07042 | 30022 ft | 449 kts | 265° |
| 2026-04-26 13:42 | 16.92242 | 139.00534 | 30019 ft | 449 kts | 265° |
| 2026-04-26 13:43 | 16.91718 | 138.94036 | 30018 ft | 448 kts | 265° |
| 2026-04-26 13:43 | 16.91197 | 138.87596 | 30021 ft | 448 kts | 265° |
| 2026-04-26 13:44 | 16.90670 | 138.81113 | 30016 ft | 447 kts | 265° |
| 2026-04-26 13:44 | 16.90143 | 138.74649 | 30022 ft | 446 kts | 265° |
| 2026-04-26 13:45 | 16.89614 | 138.68184 | 30021 ft | 446 kts | 265° |
| 2026-04-26 13:45 | 16.89083 | 138.61724 | 30019 ft | 446 kts | 265° |
| 2026-04-26 13:46 | 16.88550 | 138.55268 | 30020 ft | 446 kts | 265° |
| 2026-04-26 13:46 | 16.88018 | 138.48845 | 30020 ft | 447 kts | 265° |
| 2026-04-26 13:47 | 16.87481 | 138.42387 | 30017 ft | 447 kts | 265° |
| 2026-04-26 13:47 | 16.86941 | 138.35917 | 30018 ft | 446 kts | 265° |
| 2026-04-26 13:48 | 16.86400 | 138.29461 | 30014 ft | 446 kts | 264° |
| 2026-04-26 13:48 | 16.85858 | 138.23015 | 30020 ft | 446 kts | 264° |
| 2026-04-26 13:49 | 16.85314 | 138.16561 | 30019 ft | 445 kts | 264° |
| 2026-04-26 13:49 | 16.84771 | 138.10156 | 30017 ft | 445 kts | 264° |
| 2026-04-26 13:50 | 16.84223 | 138.03710 | 30020 ft | 445 kts | 264° |
| 2026-04-26 13:50 | 16.83673 | 137.97271 | 30020 ft | 445 kts | 264° |
| 2026-04-26 13:51 | 16.83121 | 137.90835 | 30016 ft | 446 kts | 264° |
| 2026-04-26 13:51 | 16.82567 | 137.84385 | 30015 ft | 446 kts | 264° |
| 2026-04-26 13:52 | 16.82013 | 137.77975 | 30022 ft | 446 kts | 264° |
| 2026-04-26 13:52 | 16.81454 | 137.71521 | 30021 ft | 447 kts | 264° |
| 2026-04-26 13:53 | 16.80893 | 137.65060 | 30017 ft | 447 kts | 264° |
| 2026-04-26 13:53 | 16.80329 | 137.58594 | 30018 ft | 447 kts | 264° |
| 2026-04-26 13:54 | 16.79762 | 137.52122 | 30015 ft | 447 kts | 264° |
| 2026-04-26 13:54 | 16.79196 | 137.45682 | 30015 ft | 448 kts | 264° |
| 2026-04-26 13:55 | 16.78432 | 137.37025 | 30019 ft | 448 kts | 264° |
| 2026-04-26 13:56 | 16.77478 | 137.26278 | 30016 ft | 447 kts | 264° |
| 2026-04-26 13:56 | 16.76902 | 137.19816 | 30019 ft | 447 kts | 264° |
| 2026-04-26 13:57 | 16.76324 | 137.13353 | 30016 ft | 447 kts | 264° |
| 2026-04-26 13:57 | 16.75744 | 137.06903 | 30016 ft | 447 kts | 264° |
| 2026-04-26 13:58 | 16.75167 | 137.00495 | 30017 ft | 446 kts | 263° |
| 2026-04-26 13:58 | 16.74584 | 136.94045 | 30017 ft | 446 kts | 263° |
| 2026-04-26 13:59 | 16.73999 | 136.87600 | 30016 ft | 446 kts | 263° |
| 2026-04-26 13:59 | 16.73411 | 136.81145 | 30016 ft | 446 kts | 263° |
| 2026-04-26 14:00 | 16.72231 | 136.68253 | 30016 ft | 446 kts | 263° |
| 2026-04-26 14:01 | 16.71638 | 136.61809 | 30017 ft | 446 kts | 263° |
| 2026-04-26 14:01 | 16.71047 | 136.55409 | 30011 ft | 446 kts | 263° |
| 2026-04-26 14:02 | 16.70451 | 136.48971 | 30016 ft | 446 kts | 263° |
| 2026-04-26 14:02 | 16.69852 | 136.42529 | 30014 ft | 446 kts | 263° |
| 2026-04-26 14:03 | 16.69253 | 136.36103 | 30015 ft | 445 kts | 263° |
| 2026-04-26 14:03 | 16.68652 | 136.29676 | 30017 ft | 445 kts | 263° |
| 2026-04-26 14:04 | 16.68047 | 136.23238 | 30015 ft | 445 kts | 263° |
| 2026-04-26 14:04 | 16.67442 | 136.16820 | 30020 ft | 445 kts | 263° |
| 2026-04-26 14:05 | 16.66835 | 136.10397 | 30021 ft | 445 kts | 263° |
| 2026-04-26 14:05 | 16.66230 | 136.04015 | 30018 ft | 445 kts | 263° |
| 2026-04-26 14:06 | 16.65618 | 135.97587 | 30015 ft | 445 kts | 263° |
| 2026-04-26 14:06 | 16.65004 | 135.91154 | 30015 ft | 445 kts | 263° |
| 2026-04-26 14:07 | 16.64389 | 135.84729 | 30019 ft | 445 kts | 263° |
| 2026-04-26 14:07 | 16.63772 | 135.78307 | 30014 ft | 445 kts | 263° |
| 2026-04-26 14:08 | 16.63258 | 135.72976 | 30018 ft | 445 kts | 263° |
| 2026-04-26 14:08 | 16.62537 | 135.65520 | 30016 ft | 445 kts | 263° |
| 2026-04-26 14:09 | 16.61915 | 135.59103 | 30018 ft | 445 kts | 263° |
| 2026-04-26 14:09 | 16.61392 | 135.53729 | 30016 ft | 445 kts | 263° |
| 2026-04-26 14:10 | 16.60766 | 135.47318 | 30017 ft | 444 kts | 263° |
| 2026-04-26 14:10 | 16.60143 | 135.40952 | 30014 ft | 444 kts | 263° |
| 2026-04-26 14:11 | 16.59198 | 135.31343 | 30016 ft | 444 kts | 262° |
| 2026-04-26 14:11 | 16.58566 | 135.24938 | 30017 ft | 443 kts | 262° |
| 2026-04-26 14:12 | 16.57932 | 135.18540 | 30013 ft | 443 kts | 262° |
| 2026-04-26 14:12 | 16.57301 | 135.12184 | 30013 ft | 443 kts | 262° |
| 2026-04-26 14:13 | 16.56346 | 135.02606 | 30014 ft | 442 kts | 262° |
| 2026-04-26 14:14 | 16.55707 | 134.96223 | 30013 ft | 442 kts | 262° |
| 2026-04-26 14:14 | 16.55068 | 134.89858 | 30012 ft | 441 kts | 262° |
| 2026-04-26 14:15 | 16.54428 | 134.83499 | 30014 ft | 441 kts | 262° |
| 2026-04-26 14:15 | 16.53785 | 134.77139 | 30011 ft | 440 kts | 262° |
| 2026-04-26 14:16 | 16.53143 | 134.70799 | 30015 ft | 440 kts | 262° |
| 2026-04-26 14:16 | 16.52503 | 134.64501 | 30012 ft | 439 kts | 262° |
| 2026-04-26 14:17 | 16.51857 | 134.58170 | 30010 ft | 439 kts | 262° |
| 2026-04-26 14:17 | 16.51211 | 134.51847 | 30014 ft | 439 kts | 262° |
| 2026-04-26 14:18 | 16.50561 | 134.45513 | 30009 ft | 439 kts | 262° |
| 2026-04-26 14:18 | 16.49911 | 134.39191 | 30011 ft | 438 kts | 262° |
| 2026-04-26 14:19 | 16.49258 | 134.32872 | 30010 ft | 438 kts | 262° |
| 2026-04-26 14:19 | 16.48605 | 134.26553 | 30014 ft | 438 kts | 262° |
| 2026-04-26 14:20 | 16.47949 | 134.20239 | 30011 ft | 439 kts | 262° |
| 2026-04-26 14:20 | 16.47295 | 134.13951 | 30008 ft | 440 kts | 262° |
| 2026-04-26 14:21 | 16.46632 | 134.07609 | 30011 ft | 440 kts | 262° |
| 2026-04-26 14:21 | 16.45968 | 134.01262 | 30011 ft | 441 kts | 262° |
| 2026-04-26 14:22 | 16.45301 | 133.94910 | 30014 ft | 441 kts | 262° |
| 2026-04-26 14:22 | 16.44631 | 133.88552 | 30009 ft | 441 kts | 262° |
| 2026-04-26 14:23 | 16.43959 | 133.82191 | 30010 ft | 441 kts | 262° |
| 2026-04-26 14:23 | 16.43286 | 133.75837 | 30010 ft | 441 kts | 262° |
| 2026-04-26 14:24 | 16.42610 | 133.69474 | 30009 ft | 441 kts | 262° |
| 2026-04-26 14:24 | 16.41933 | 133.63120 | 30012 ft | 441 kts | 262° |
| 2026-04-26 14:25 | 16.41258 | 133.56805 | 30009 ft | 441 kts | 262° |
| 2026-04-26 14:25 | 16.40577 | 133.50452 | 30006 ft | 441 kts | 262° |
| 2026-04-26 14:26 | 16.39894 | 133.44100 | 30009 ft | 441 kts | 262° |
| 2026-04-26 14:26 | 16.39210 | 133.37750 | 30010 ft | 441 kts | 262° |
| 2026-04-26 14:27 | 16.38523 | 133.31402 | 30005 ft | 441 kts | 262° |
| 2026-04-26 14:27 | 16.37836 | 133.25064 | 30008 ft | 440 kts | 262° |
| 2026-04-26 14:28 | 16.37148 | 133.18734 | 30008 ft | 440 kts | 262° |
| 2026-04-26 14:28 | 16.36458 | 133.12407 | 30005 ft | 439 kts | 262° |
| 2026-04-26 14:29 | 16.35771 | 133.06123 | 30008 ft | 439 kts | 262° |
| 2026-04-26 14:29 | 16.35080 | 132.99815 | 30005 ft | 438 kts | 262° |
| 2026-04-26 14:30 | 16.34386 | 132.93508 | 30004 ft | 438 kts | 262° |
| 2026-04-26 14:30 | 16.33691 | 132.87204 | 30002 ft | 437 kts | 262° |
| 2026-04-26 14:31 | 16.33000 | 132.80949 | 30004 ft | 437 kts | 262° |
| 2026-04-26 14:31 | 16.32303 | 132.74662 | 30000 ft | 436 kts | 262° |
| 2026-04-26 14:32 | 16.31605 | 132.68386 | 30005 ft | 436 kts | 262° |
| 2026-04-26 14:32 | 16.30905 | 132.62106 | 30000 ft | 436 kts | 262° |
| 2026-04-26 14:33 | 16.30204 | 132.55833 | 30002 ft | 436 kts | 262° |
| 2026-04-26 14:33 | 16.29506 | 132.49605 | 29998 ft | 436 kts | 262° |
| 2026-04-26 14:34 | 16.28802 | 132.43342 | 30001 ft | 436 kts | 262° |
| 2026-04-26 14:34 | 16.28097 | 132.37079 | 30002 ft | 435 kts | 262° |
| 2026-04-26 14:35 | 16.27390 | 132.30821 | 29995 ft | 435 kts | 262° |
| 2026-04-26 14:35 | 16.26681 | 132.24562 | 29994 ft | 435 kts | 262° |
| 2026-04-26 14:36 | 16.25974 | 132.18339 | 29999 ft | 434 kts | 262° |
| 2026-04-26 14:36 | 16.25264 | 132.12102 | 29997 ft | 434 kts | 262° |
| 2026-04-26 14:37 | 16.24551 | 132.05859 | 29997 ft | 434 kts | 262° |
| 2026-04-26 14:37 | 16.23836 | 131.99616 | 29995 ft | 434 kts | 262° |
| 2026-04-26 14:38 | 16.23122 | 131.93387 | 29994 ft | 433 kts | 262° |
| 2026-04-26 14:38 | 16.22405 | 131.87162 | 29996 ft | 433 kts | 262° |
| 2026-04-26 14:39 | 16.21688 | 131.80944 | 29994 ft | 433 kts | 262° |
| 2026-04-26 14:39 | 16.20968 | 131.74723 | 29995 ft | 433 kts | 262° |
| 2026-04-26 14:40 | 16.20248 | 131.68511 | 29994 ft | 432 kts | 262° |
| 2026-04-26 14:40 | 16.19530 | 131.62340 | 29994 ft | 432 kts | 262° |
| 2026-04-26 14:41 | 16.18807 | 131.56137 | 29995 ft | 432 kts | 262° |
| 2026-04-26 14:41 | 16.18083 | 131.49938 | 29992 ft | 432 kts | 262° |
| 2026-04-26 14:42 | 16.17356 | 131.43736 | 29994 ft | 432 kts | 262° |
| 2026-04-26 14:42 | 16.16628 | 131.37540 | 29990 ft | 431 kts | 262° |
| 2026-04-26 14:43 | 16.15898 | 131.31338 | 29988 ft | 431 kts | 262° |
| 2026-04-26 14:43 | 16.15167 | 131.25148 | 29991 ft | 431 kts | 262° |
| 2026-04-26 14:44 | 16.14439 | 131.18996 | 29984 ft | 431 kts | 262° |
| 2026-04-26 14:44 | 16.13705 | 131.12808 | 29986 ft | 431 kts | 262° |
| 2026-04-26 14:45 | 16.12969 | 131.06623 | 29986 ft | 430 kts | 262° |
| 2026-04-26 14:45 | 16.12232 | 131.00442 | 29990 ft | 430 kts | 262° |
| 2026-04-26 14:46 | 16.11495 | 130.94273 | 29989 ft | 430 kts | 262° |
| 2026-04-26 14:46 | 16.10760 | 130.88140 | 29988 ft | 430 kts | 262° |
| 2026-04-26 14:47 | 16.10014 | 130.81936 | 29987 ft | 429 kts | 262° |
| 2026-04-26 14:47 | 16.09272 | 130.75775 | 29989 ft | 429 kts | 262° |
| 2026-04-26 14:48 | 16.08534 | 130.69658 | 29981 ft | 429 kts | 262° |
| 2026-04-26 14:48 | 16.07789 | 130.63502 | 29985 ft | 429 kts | 262° |
| 2026-04-26 14:49 | 16.07041 | 130.57339 | 29988 ft | 429 kts | 262° |
| 2026-04-26 14:49 | 16.06292 | 130.51175 | 29984 ft | 429 kts | 262° |
| 2026-04-26 14:50 | 16.05541 | 130.45018 | 29976 ft | 429 kts | 262° |
| 2026-04-26 14:50 | 16.04788 | 130.38851 | 29978 ft | 429 kts | 262° |
| 2026-04-26 14:51 | 16.04035 | 130.32703 | 29978 ft | 429 kts | 262° |
| 2026-04-26 14:51 | 16.03279 | 130.26546 | 29976 ft | 429 kts | 262° |
| 2026-04-26 14:52 | 16.02527 | 130.20436 | 29980 ft | 429 kts | 262° |
| 2026-04-26 14:52 | 16.01768 | 130.14284 | 29977 ft | 429 kts | 262° |
| 2026-04-26 14:53 | 16.01008 | 130.08133 | 29972 ft | 429 kts | 262° |
| 2026-04-26 14:53 | 16.00245 | 130.01981 | 29974 ft | 429 kts | 262° |
| 2026-04-26 14:54 | 15.99795 | 129.95800 | 29972 ft | 429 kts | 266° |
| 2026-04-26 14:54 | 15.99587 | 129.89592 | 29970 ft | 430 kts | 266° |